Observation data for Bootleg on 04/16/2021      Previous  Date  Next       Current Mesonet Observations  Soil Data  Daily Summary Page  Observations in Plain Language
KBO1 160500Z 15010KT 07/07 A2991 RMK A01 T00650065  RH  100%=      5-min Rain = 0
KBO1 160501Z 16007KT 07/07 A2991 RMK A01 T00650065  RH  100%=      5-min Rain = 0
KBO1 160502Z 16007KT 07/07 A2991 RMK A01 T00650065  RH  100%=      5-min Rain = 0
KBO1 160503Z 16007KT 07/07 A2992 RMK A01 T00660066  RH  100%=      5-min Rain = 0
KBO1 160504Z 16006KT 07/07 A2992 RMK A01 T00660066  RH  100%=      5-min Rain = 0
KBO1 160505Z 17007KT 07/07 A2992 RMK A01 T00660066  RH  100%=      5-min Rain = 0
KBO1 160506Z 17008KT 07/07 A2992 RMK A01 T00660066  RH  100%=      5-min Rain = 0
KBO1 160507Z 16008KT 07/07 A2991 RMK A01 T00660066  RH  100%=      5-min Rain = 0
KBO1 160508Z 16010KT 07/07 A2991 RMK A01 T00660066  RH  100%=      5-min Rain = 0
KBO1 160509Z 16009KT 07/07 A2991 RMK A01 T00660066  RH  100%=      5-min Rain = 0
KBO1 160510Z 16007KT 07/07 A2991 RMK A01 T00660066  RH  100%=      5-min Rain = 0
KBO1 160511Z 16007KT 07/07 A2991 RMK A01 T00660066  RH  100%=      5-min Rain = 0
KBO1 160512Z 18007KT 07/07 A2992 RMK A01 T00660066  RH  100%=      5-min Rain = 0
KBO1 160513Z 19007KT 07/07 A2992 RMK A01 T00660066  RH  100%=      5-min Rain = 0
KBO1 160514Z 20006KT 07/07 A2993 RMK A01 T00660066  RH  100%=      5-min Rain = 0
KBO1 160515Z 20006KT 07/07 A2994 RMK A01 T00660066  RH  100%=      5-min Rain = 0
KBO1 160516Z 20006KT 07/07 A2994 RMK A01 T00660066  RH  100%=      5-min Rain = 0
KBO1 160517Z 20005KT 07/07 A2993 RMK A01 T00660066  RH  100%=      5-min Rain = 0
KBO1 160518Z 19007KT 07/07 A2993 RMK A01 T00670067  RH  100%=      5-min Rain = 0
KBO1 160519Z 18008KT 07/07 A2993 RMK A01 T00670067  RH  100%=      5-min Rain = 0
KBO1 160520Z 17008KT 07/07 A2993 RMK A01 T00670067  RH  100%=      5-min Rain = 0
KBO1 160521Z 17008KT 07/07 A2993 RMK A01 T00670067  RH  100%=      5-min Rain = 0
KBO1 160522Z 17008KT 07/07 A2993 RMK A01 T00670067  RH  100%=      5-min Rain = 0
KBO1 160523Z 17008KT 07/07 A2993 RMK A01 T00670067  RH  100%=      5-min Rain = 0
KBO1 160524Z 17009KT 07/07 A2993 RMK A01 T00670067  RH  100%=      5-min Rain = 0
KBO1 160525Z 16008KT 07/07 A2993 RMK A01 T00670067  RH  100%=      5-min Rain = 0
KBO1 160526Z 17009KT 07/07 A2993 RMK A01 T00670067  RH  100%=      5-min Rain = 0
KBO1 160527Z 16010KT 07/07 A2993 RMK A01 T00670067  RH  100%=      5-min Rain = 0
KBO1 160528Z 16010KT 07/07 A2992 RMK A01 T00670067  RH  100%=      5-min Rain = 0
KBO1 160529Z 16012KT 07/07 A2992 RMK A01 T00670067  RH  100%=      5-min Rain = 0.01
KBO1 160530Z 16011KT 07/07 A2992 RMK A01 T00670067  RH  100%=      5-min Rain = 0
KBO1 160531Z 16010KT 07/07 A2992 RMK A01 T00670067  RH  100%=      5-min Rain = 0
KBO1 160532Z 17011KT 07/07 A2992 RMK A01 T00670067  RH  100%=      5-min Rain = 0
KBO1 160533Z 17010KT 07/07 A2992 RMK A01 T00670067  RH  100%=      5-min Rain = 0
KBO1 160534Z 16011KT 07/07 A2992 RMK A01 T00670067  RH  100%=      5-min Rain = 0
KBO1 160535Z 16011KT 07/07 A2992 RMK A01 T00670067  RH  100%=      5-min Rain = 0
KBO1 160536Z 16010KT 07/07 A2992 RMK A01 T00670067  RH  100%=      5-min Rain = 0
KBO1 160537Z 16011KT 07/07 A2992 RMK A01 T00670067  RH  100%=      5-min Rain = 0
KBO1 160538Z 16011KT 07/07 A2992 RMK A01 T00670067  RH  100%=      5-min Rain = 0
KBO1 160539Z 16011KT 07/07 A2992 RMK A01 T00670067  RH  100%=      5-min Rain = 0
KBO1 160540Z 16009KT 07/07 A2992 RMK A01 T00670067  RH  100%=      5-min Rain = 0
KBO1 160541Z 16009KT 07/07 A2992 RMK A01 T00670067  RH  100%=      5-min Rain = 0
KBO1 160542Z 15010KT 07/07 A2992 RMK A01 T00670067  RH  100%=      5-min Rain = 0
KBO1 160543Z 16010KT 07/07 A2992 RMK A01 T00670067  RH  100%=      5-min Rain = 0
KBO1 160544Z 16011KT 07/07 A2992 RMK A01 T00670067  RH  100%=      5-min Rain = 0
KBO1 160545Z 16011KT 07/07 A2992 RMK A01 T00670067  RH  100%=      5-min Rain = 0
KBO1 160546Z 16010KT 07/07 A2992 RMK A01 T00670067  RH  100%=      5-min Rain = 0
KBO1 160547Z 16009KT 07/07 A2992 RMK A01 T00670067  RH  100%=      5-min Rain = 0
KBO1 160548Z 16012KT 07/07 A2992 RMK A01 T00670067  RH  100%=      5-min Rain = 0
KBO1 160549Z 16012KT 07/07 A2991 RMK A01 T00670067  RH  100%=      5-min Rain = 0
KBO1 160550Z 16011KT 07/07 A2991 RMK A01 T00670067  RH  100%=      5-min Rain = 0
KBO1 160551Z 16012KT 07/07 A2991 RMK A01 T00670067  RH  100%=      5-min Rain = 0
KBO1 160552Z 16014KT 07/07 A2991 RMK A01 T00670067  RH  100%=      5-min Rain = 0
KBO1 160553Z 16013KT 07/07 A2991 RMK A01 T00670067  RH  100%=      5-min Rain = 0
KBO1 160554Z 16013KT 07/07 A2991 RMK A01 T00670067  RH  100%=      5-min Rain = 0
KBO1 160555Z 16011KT 07/07 A2991 RMK A01 T00670067  RH  100%=      5-min Rain = 0
KBO1 160556Z 16013KT 07/07 A2991 RMK A01 T00670067  RH  100%=      5-min Rain = 0
KBO1 160557Z 16012KT 07/07 A2991 RMK A01 T00670067  RH  100%=      5-min Rain = 0
KBO1 160558Z 16012KT 07/07 A2991 RMK A01 T00670067  RH  100%=      5-min Rain = 0
KBO1 160559Z 16012KT 07/07 A2991 RMK A01 T00670067  RH  100%=      5-min Rain = 0
KBO1 160600Z 16013KT 07/07 A2991 RMK A01 T00670067  RH  100%=      5-min Rain = 0
KBO1 160601Z 16012KT 07/07 A2991 RMK A01 T00670067  RH  100%=      5-min Rain = 0
KBO1 160602Z 15014KT 07/07 A2991 RMK A01 T00670067  RH  100%=      5-min Rain = 0
KBO1 160603Z 15014KT 07/07 A2991 RMK A01 T00670067  RH  100%=      5-min Rain = 0
KBO1 160604Z 15011KT 07/07 A2991 RMK A01 T00670067  RH  100%=      5-min Rain = 0
KBO1 160605Z 15011KT 07/07 A2991 RMK A01 T00670067  RH  100%=      5-min Rain = 0
KBO1 160606Z 15012KT 07/07 A2991 RMK A01 T00670067  RH  100%=      5-min Rain = 0
KBO1 160607Z 15011KT 07/07 A2991 RMK A01 T00670067  RH  100%=      5-min Rain = 0
KBO1 160608Z 15010KT 07/07 A2991 RMK A01 T00670067  RH  100%=      5-min Rain = 0
KBO1 160609Z 15009KT 07/07 A2991 RMK A01 T00670067  RH  100%=      5-min Rain = 0
KBO1 160610Z 15007KT 07/07 A2992 RMK A01 T00670067  RH  100%=      5-min Rain = 0
KBO1 160611Z 15006KT 07/07 A2992 RMK A01 T00670067  RH  100%=      5-min Rain = 0
KBO1 160612Z 13004KT 07/07 A2993 RMK A01 T00670067  RH  100%=      5-min Rain = 0
KBO1 160613Z 13003KT 07/07 A2993 RMK A01 T00670067  RH  100%=      5-min Rain = 0
KBO1 160614Z 12001KT 07/07 A2994 RMK A01 T00670067  RH  100%=      5-min Rain = 0
KBO1 160615Z 00000KT 07/07 A2994 RMK A01 T00670067  RH  100%=      5-min Rain = 0
KBO1 160616Z 00000KT 07/07 A2994 RMK A01 T00670067  RH  100%=      5-min Rain = 0
KBO1 160617Z 16001KT 07/07 A2994 RMK A01 T00670067  RH  100%=      5-min Rain = 0
KBO1 160618Z 14005KT 07/07 A2993 RMK A01 T00670067  RH  100%=      5-min Rain = 0
KBO1 160619Z 16007KT 07/07 A2993 RMK A01 T00670067  RH  100%=      5-min Rain = 0
KBO1 160620Z 16009KT 07/07 A2993 RMK A01 T00680068  RH  100%=      5-min Rain = 0
KBO1 160621Z 15010KT 07/07 A2992 RMK A01 T00680068  RH  100%=      5-min Rain = 0
KBO1 160622Z 16008KT 07/07 A2993 RMK A01 T00680068  RH  100%=      5-min Rain = 0
KBO1 160623Z 15009KT 07/07 A2993 RMK A01 T00680068  RH  100%=      5-min Rain = 0
KBO1 160624Z 15008KT 07/07 A2993 RMK A01 T00680068  RH  100%=      5-min Rain = 0
KBO1 160625Z 15009KT 07/07 A2993 RMK A01 T00680068  RH  100%=      5-min Rain = 0
KBO1 160626Z 15009KT 07/07 A2993 RMK A01 T00670067  RH  100%=      5-min Rain = 0
KBO1 160627Z 15008KT 07/07 A2993 RMK A01 T00680068  RH  100%=      5-min Rain = 0
KBO1 160628Z 15009KT 07/07 A2993 RMK A01 T00680068  RH  100%=      5-min Rain = 0
KBO1 160629Z 15007KT 07/07 A2993 RMK A01 T00680068  RH  100%=      5-min Rain = 0
KBO1 160630Z 15007KT 07/07 A2993 RMK A01 T00680068  RH  100%=      5-min Rain = 0
KBO1 160631Z 15007KT 07/07 A2993 RMK A01 T00680068  RH  100%=      5-min Rain = 0
KBO1 160632Z 15009KT 07/07 A2993 RMK A01 T00680068  RH  100%=      5-min Rain = 0
KBO1 160633Z 15011KT 07/07 A2993 RMK A01 T00680068  RH  100%=      5-min Rain = 0
KBO1 160634Z 16011KT 07/07 A2993 RMK A01 T00680068  RH  100%=      5-min Rain = 0
KBO1 160635Z 15011KT 07/07 A2992 RMK A01 T00680068  RH  100%=      5-min Rain = 0
KBO1 160636Z 15011KT 07/07 A2992 RMK A01 T00680068  RH  100%=      5-min Rain = 0
KBO1 160637Z 15011KT 07/07 A2992 RMK A01 T00680068  RH  100%=      5-min Rain = 0
KBO1 160638Z 16010KT 07/07 A2992 RMK A01 T00680068  RH  100%=      5-min Rain = 0
KBO1 160639Z 16010KT 07/07 A2992 RMK A01 T00680068  RH  100%=      5-min Rain = 0
KBO1 160640Z 15011KT 07/07 A2992 RMK A01 T00680068  RH  100%=      5-min Rain = 0
KBO1 160641Z 15012KT 07/07 A2992 RMK A01 T00680068  RH  100%=      5-min Rain = 0
KBO1 160642Z 15011KT 07/07 A2992 RMK A01 T00680068  RH  100%=      5-min Rain = 0
KBO1 160643Z 15010KT 07/07 A2992 RMK A01 T00680068  RH  100%=      5-min Rain = 0
KBO1 160644Z 15010KT 07/07 A2992 RMK A01 T00680068  RH  100%=      5-min Rain = 0
KBO1 160645Z 15011KT 07/07 A2992 RMK A01 T00690069  RH  100%=      5-min Rain = 0
KBO1 160646Z 15011KT 07/07 A2992 RMK A01 T00690069  RH  100%=      5-min Rain = 0
KBO1 160647Z 15010KT 07/07 A2992 RMK A01 T00690069  RH  100%=      5-min Rain = 0
KBO1 160648Z 15011KT 07/07 A2992 RMK A01 T00680068  RH  100%=      5-min Rain = 0
KBO1 160649Z 15011KT 07/07 A2992 RMK A01 T00680068  RH  100%=      5-min Rain = 0
KBO1 160650Z 15010KT 07/07 A2992 RMK A01 T00690069  RH  100%=      5-min Rain = 0
KBO1 160651Z 16008KT 07/07 A2992 RMK A01 T00690069  RH  100%=      5-min Rain = 0
KBO1 160652Z 15008KT 07/07 A2992 RMK A01 T00690069  RH  100%=      5-min Rain = 0
KBO1 160653Z 15008KT 07/07 A2993 RMK A01 T00690069  RH  100%=      5-min Rain = 0
KBO1 160654Z 14005KT 07/07 A2993 RMK A01 T00690069  RH  100%=      5-min Rain = 0
KBO1 160655Z 14005KT 07/07 A2993 RMK A01 T00690069  RH  100%=      5-min Rain = 0
KBO1 160656Z 14004KT 07/07 A2994 RMK A01 T00690069  RH  100%=      5-min Rain = 0
KBO1 160657Z 12003KT 07/07 A2994 RMK A01 T00680068  RH  100%=      5-min Rain = 0
KBO1 160658Z 11002KT 07/07 A2994 RMK A01 T00680068  RH  100%=      5-min Rain = 0
KBO1 160659Z 05003KT 07/07 A2994 RMK A01 T00690069  RH  100%=      5-min Rain = 0
KBO1 160700Z 07003KT 07/07 A2994 RMK A01 T00690069  RH  100%=      5-min Rain = 0
KBO1 160701Z 07003KT 07/07 A2994 RMK A01 T00690069  RH  100%=      5-min Rain = 0
KBO1 160702Z 08003KT 07/07 A2994 RMK A01 T00690069  RH  100%=      5-min Rain = 0
KBO1 160703Z 07004KT 07/07 A2994 RMK A01 T00680068  RH  100%=      5-min Rain = 0
KBO1 160704Z 08003KT 07/07 A2994 RMK A01 T00690069  RH  100%=      5-min Rain = 0
KBO1 160705Z 05003KT 07/07 A2995 RMK A01 T00680068  RH  100%=      5-min Rain = 0
KBO1 160706Z 06003KT 07/07 A2995 RMK A01 T00690069  RH  100%=      5-min Rain = 0
KBO1 160707Z 06003KT 07/07 A2995 RMK A01 T00690069  RH  100%=      5-min Rain = 0
KBO1 160708Z 08002KT 07/07 A2994 RMK A01 T00690069  RH  100%=      5-min Rain = 0
KBO1 160709Z 11002KT 07/07 A2994 RMK A01 T00690069  RH  100%=      5-min Rain = 0
KBO1 160710Z 10003KT 07/07 A2994 RMK A01 T00690069  RH  100%=      5-min Rain = 0
KBO1 160711Z 11003KT 07/07 A2994 RMK A01 T00690069  RH  100%=      5-min Rain = 0
KBO1 160712Z 11003KT 07/07 A2994 RMK A01 T00690069  RH  100%=      5-min Rain = 0
KBO1 160713Z 12004KT 07/07 A2994 RMK A01 T00690069  RH  100%=      5-min Rain = 0
KBO1 160714Z 12004KT 07/07 A2994 RMK A01 T00690069  RH  100%=      5-min Rain = 0
KBO1 160715Z 10004KT 07/07 A2994 RMK A01 T00690069  RH  100%=      5-min Rain = 0
KBO1 160716Z 11003KT 07/07 A2994 RMK A01 T00690069  RH  100%=      5-min Rain = 0
KBO1 160717Z 10003KT 07/07 A2994 RMK A01 T00690069  RH  100%=      5-min Rain = 0
KBO1 160718Z 10003KT 07/07 A2994 RMK A01 T00690069  RH  100%=      5-min Rain = 0
KBO1 160719Z 09003KT 07/07 A2994 RMK A01 T00690069  RH  100%=      5-min Rain = 0
KBO1 160720Z 09003KT 07/07 A2994 RMK A01 T00700070  RH  100%=      5-min Rain = 0
KBO1 160721Z 10004KT 07/07 A2994 RMK A01 T00690069  RH  100%=      5-min Rain = 0
KBO1 160722Z 10004KT 07/07 A2994 RMK A01 T00690069  RH  100%=      5-min Rain = 0
KBO1 160723Z 10004KT 07/07 A2994 RMK A01 T00700070  RH  100%=      5-min Rain = 0
KBO1 160724Z 11004KT 07/07 A2994 RMK A01 T00690069  RH  100%=      5-min Rain = 0
KBO1 160725Z 10004KT 07/07 A2994 RMK A01 T00700070  RH  100%=      5-min Rain = 0
KBO1 160726Z 12004KT 07/07 A2994 RMK A01 T00690069  RH  100%=      5-min Rain = 0
KBO1 160727Z 11003KT 07/07 A2994 RMK A01 T00690069  RH  100%=      5-min Rain = 0
KBO1 160728Z 10004KT 07/07 A2994 RMK A01 T00690069  RH  100%=      5-min Rain = 0
KBO1 160729Z 10003KT 07/07 A2994 RMK A01 T00690069  RH  100%=      5-min Rain = 0
KBO1 160730Z 11005KT 07/07 A2994 RMK A01 T00690070  RH  100%=      5-min Rain = 0
KBO1 160731Z 11005KT 07/07 A2994 RMK A01 T00700070  RH  100%=      5-min Rain = 0
KBO1 160732Z 11005KT 07/07 A2993 RMK A01 T00690069  RH  100%=      5-min Rain = 0
KBO1 160733Z 11005KT 07/07 A2993 RMK A01 T00690069  RH  100%=      5-min Rain = 0
KBO1 160734Z 11005KT 07/07 A2993 RMK A01 T00690069  RH  100%=      5-min Rain = 0
KBO1 160735Z 11005KT 07/07 A2993 RMK A01 T00700070  RH  100%=      5-min Rain = 0
KBO1 160736Z 12005KT 07/07 A2993 RMK A01 T00690069  RH  100%=      5-min Rain = 0
KBO1 160737Z 12005KT 07/07 A2993 RMK A01 T00690069  RH  100%=      5-min Rain = 0
KBO1 160738Z 12004KT 07/07 A2993 RMK A01 T00690069  RH  100%=      5-min Rain = 0
KBO1 160739Z 12004KT 07/07 A2993 RMK A01 T00690069  RH  100%=      5-min Rain = 0
KBO1 160740Z 12004KT 07/07 A2993 RMK A01 T00690069  RH  100%=      5-min Rain = 0
KBO1 160741Z 12006KT 07/07 A2993 RMK A01 T00690069  RH  100%=      5-min Rain = 0
KBO1 160742Z 11005KT 07/07 A2993 RMK A01 T00700070  RH  100%=      5-min Rain = 0
KBO1 160743Z 11005KT 07/07 A2993 RMK A01 T00690069  RH  100%=      5-min Rain = 0
KBO1 160744Z 11005KT 07/07 A2993 RMK A01 T00700070  RH  100%=      5-min Rain = 0
KBO1 160745Z 11005KT 07/07 A2993 RMK A01 T00690070  RH  100%=      5-min Rain = 0
KBO1 160746Z 11005KT 07/07 A2993 RMK A01 T00690069  RH  100%=      5-min Rain = 0
KBO1 160747Z 11005KT 07/07 A2993 RMK A01 T00700070  RH  100%=      5-min Rain = 0
KBO1 160748Z 10004KT 07/07 A2993 RMK A01 T00690069  RH  100%=      5-min Rain = 0
KBO1 160749Z 10005KT 07/07 A2993 RMK A01 T00690069  RH  100%=      5-min Rain = 0
KBO1 160750Z 10005KT 07/07 A2993 RMK A01 T00690070  RH  100%=      5-min Rain = 0
KBO1 160751Z 09004KT 07/07 A2994 RMK A01 T00690070  RH  100%=      5-min Rain = 0
KBO1 160752Z 09005KT 07/07 A2994 RMK A01 T00690069  RH  100%=      5-min Rain = 0
KBO1 160753Z 09004KT 07/07 A2994 RMK A01 T00690069  RH  100%=      5-min Rain = 0
KBO1 160754Z 09004KT 07/07 A2994 RMK A01 T00690069  RH  100%=      5-min Rain = 0
KBO1 160755Z 08003KT 07/07 A2994 RMK A01 T00690069  RH  100%=      5-min Rain = 0
KBO1 160756Z 09004KT 07/07 A2994 RMK A01 T00690069  RH  100%=      5-min Rain = 0
KBO1 160757Z 09004KT 07/07 A2994 RMK A01 T00690069  RH  100%=      5-min Rain = 0
KBO1 160758Z 09003KT 07/07 A2994 RMK A01 T00700070  RH  100%=      5-min Rain = 0
KBO1 160759Z 09004KT 07/07 A2994 RMK A01 T00690069  RH  100%=      5-min Rain = 0
KBO1 160800Z 10005KT 07/07 A2994 RMK A01 T00690069  RH  100%=      5-min Rain = 0
KBO1 160801Z 10004KT 07/07 A2994 RMK A01 T00700070  RH  100%=      5-min Rain = 0
KBO1 160802Z 10004KT 07/07 A2994 RMK A01 T00690069  RH  100%=      5-min Rain = 0
KBO1 160803Z 11004KT 07/07 A2994 RMK A01 T00690069  RH  100%=      5-min Rain = 0
KBO1 160804Z 11004KT 07/07 A2994 RMK A01 T00690069  RH  100%=      5-min Rain = 0
KBO1 160805Z 10004KT 07/07 A2994 RMK A01 T00690069  RH  100%=      5-min Rain = 0
KBO1 160806Z 11005KT 07/07 A2993 RMK A01 T00690069  RH  100%=      5-min Rain = 0
KBO1 160807Z 11005KT 07/07 A2993 RMK A01 T00690069  RH  100%=      5-min Rain = 0
KBO1 160808Z 11006KT 07/07 A2993 RMK A01 T00690069  RH  100%=      5-min Rain = 0
KBO1 160809Z 11005KT 07/07 A2993 RMK A01 T00690069  RH  100%=      5-min Rain = 0
KBO1 160810Z 12005KT 07/07 A2993 RMK A01 T00690069  RH  100%=      5-min Rain = 0
KBO1 160811Z 12006KT 07/07 A2993 RMK A01 T00690069  RH  100%=      5-min Rain = 0
KBO1 160812Z 12006KT 07/07 A2993 RMK A01 T00690069  RH  100%=      5-min Rain = 0
KBO1 160813Z 13006KT 07/07 A2993 RMK A01 T00690069  RH  100%=      5-min Rain = 0
KBO1 160814Z 13007KT 07/07 A2993 RMK A01 T00690069  RH  100%=      5-min Rain = 0
KBO1 160815Z 14007KT 07/07 A2993 RMK A01 T00690069  RH  100%=      5-min Rain = 0
KBO1 160816Z 14008KT 07/07 A2993 RMK A01 T00690069  RH  100%=      5-min Rain = 0
KBO1 160817Z 15008KT 07/07 A2993 RMK A01 T00690069  RH  100%=      5-min Rain = 0
KBO1 160818Z 15009KT 07/07 A2992 RMK A01 T00690069  RH  100%=      5-min Rain = 0
KBO1 160819Z 15009KT 07/07 A2992 RMK A01 T00690069  RH  100%=      5-min Rain = 0
KBO1 160820Z 15008KT 07/07 A2992 RMK A01 T00690069  RH  100%=      5-min Rain = 0
KBO1 160821Z 16009KT 07/07 A2992 RMK A01 T00690069  RH  100%=      5-min Rain = 0
KBO1 160822Z 16008KT 07/07 A2992 RMK A01 T00690069  RH  100%=      5-min Rain = 0
KBO1 160823Z 15009KT 07/07 A2992 RMK A01 T00690069  RH  100%=      5-min Rain = 0
KBO1 160824Z 16009KT 07/07 A2992 RMK A01 T00690069  RH  100%=      5-min Rain = 0
KBO1 160825Z 16008KT 07/07 A2992 RMK A01 T00690069  RH  100%=      5-min Rain = 0
KBO1 160826Z 16009KT 07/07 A2992 RMK A01 T00690069  RH  100%=      5-min Rain = 0
KBO1 160827Z 16008KT 07/07 A2992 RMK A01 T00680068  RH  100%=      5-min Rain = 0
KBO1 160828Z 16009KT 07/07 A2992 RMK A01 T00680068  RH  100%=      5-min Rain = 0
KBO1 160829Z 16007KT 07/07 A2992 RMK A01 T00680068  RH  100%=      5-min Rain = 0
KBO1 160830Z 16007KT 07/07 A2992 RMK A01 T00680068  RH  100%=      5-min Rain = 0
KBO1 160831Z 16009KT 07/07 A2992 RMK A01 T00670067  RH  100%=      5-min Rain = 0
KBO1 160832Z 16008KT 07/07 A2991 RMK A01 T00670067  RH  100%=      5-min Rain = 0
KBO1 160833Z 16009KT 07/07 A2991 RMK A01 T00670067  RH  100%=      5-min Rain = 0
KBO1 160834Z 16009KT 07/07 A2991 RMK A01 T00670067  RH  100%=      5-min Rain = 0
KBO1 160835Z 16009KT 07/07 A2991 RMK A01 T00660066  RH  100%=      5-min Rain = 0
KBO1 160836Z 16009KT 07/07 A2991 RMK A01 T00660066  RH  100%=      5-min Rain = 0
KBO1 160837Z 17010KT 07/07 A2991 RMK A01 T00650065  RH  100%=      5-min Rain = 0
KBO1 160838Z 17010KT 07/07 A2991 RMK A01 T00650065  RH  100%=      5-min Rain = 0
KBO1 160839Z 17010KT 06/06 A2991 RMK A01 T00640064  RH  100%=      5-min Rain = 0
KBO1 160840Z 17009KT 06/06 A2991 RMK A01 T00640064  RH  100%=      5-min Rain = 0
KBO1 160841Z 17009KT 06/06 A2991 RMK A01 T00640064  RH  100%=      5-min Rain = 0
KBO1 160842Z 17010KT 06/06 A299 RMK A01 T00630063  RH  100%=      5-min Rain = 0
KBO1 160843Z 17010KT 06/06 A299 RMK A01 T00640064  RH  100%=      5-min Rain = 0
KBO1 160844Z 17010KT 06/06 A299 RMK A01 T00630063  RH  100%=      5-min Rain = 0
KBO1 160845Z 17009KT 06/06 A299 RMK A01 T00640064  RH  100%=      5-min Rain = 0
KBO1 160846Z 16008KT 06/06 A299 RMK A01 T00640064  RH  100%=      5-min Rain = 0
KBO1 160847Z 17010KT 07/07 A299 RMK A01 T00650065  RH  100%=      5-min Rain = 0
KBO1 160848Z 17009KT 07/07 A299 RMK A01 T00650065  RH  100%=      5-min Rain = 0
KBO1 160849Z 17010KT 07/07 A299 RMK A01 T00660066  RH  100%=      5-min Rain = 0
KBO1 160850Z 17010KT 07/07 A299 RMK A01 T00650065  RH  100%=      5-min Rain = 0
KBO1 160851Z 17009KT 07/07 A299 RMK A01 T00650065  RH  100%=      5-min Rain = 0
KBO1 160852Z 17009KT 06/06 A299 RMK A01 T00640064  RH  100%=      5-min Rain = 0
KBO1 160853Z 17009KT 06/06 A299 RMK A01 T00640064  RH  100%=      5-min Rain = 0
KBO1 160854Z 17009KT 06/06 A299 RMK A01 T00630063  RH  100%=      5-min Rain = 0
KBO1 160855Z 17009KT 06/06 A299 RMK A01 T00630063  RH  100%=      5-min Rain = 0
KBO1 160856Z 17009KT 06/06 A299 RMK A01 T00630063  RH  100%=      5-min Rain = 0
KBO1 160857Z 16008KT 06/06 A299 RMK A01 T00640064  RH  100%=      5-min Rain = 0
KBO1 160858Z 17009KT 06/06 A299 RMK A01 T00640064  RH  100%=      5-min Rain = 0
KBO1 160859Z 17009KT 07/07 A2989 RMK A01 T00650065  RH  100%=      5-min Rain = 0
KBO1 160900Z 17010KT 07/07 A2989 RMK A01 T00650065  RH  100%=      5-min Rain = 0
KBO1 160901Z 17009KT 07/07 A2989 RMK A01 T00650065  RH  100%=      5-min Rain = 0
KBO1 160902Z 17009KT 07/07 A2989 RMK A01 T00650065  RH  100%=      5-min Rain = 0
KBO1 160903Z 16009KT 07/07 A2989 RMK A01 T00660066  RH  100%=      5-min Rain = 0
KBO1 160904Z 16008KT 07/07 A2989 RMK A01 T00660066  RH  100%=      5-min Rain = 0
KBO1 160905Z 16008KT 07/07 A2989 RMK A01 T00660066  RH  100%=      5-min Rain = 0
KBO1 160906Z 16009KT 07/07 A2989 RMK A01 T00660066  RH  100%=      5-min Rain = 0
KBO1 160907Z 17008KT 07/07 A2989 RMK A01 T00660066  RH  100%=      5-min Rain = 0
KBO1 160908Z 17009KT 07/07 A2989 RMK A01 T00670067  RH  100%=      5-min Rain = 0
KBO1 160909Z 17009KT 07/07 A2989 RMK A01 T00670067  RH  100%=      5-min Rain = 0
KBO1 160910Z 17009KT 07/07 A2989 RMK A01 T00670067  RH  100%=      5-min Rain = 0
KBO1 160911Z 17009KT 07/07 A2989 RMK A01 T00670067  RH  100%=      5-min Rain = 0
KBO1 160912Z 17010KT 07/07 A2989 RMK A01 T00670067  RH  100%=      5-min Rain = 0
KBO1 160913Z 17010KT 07/07 A2989 RMK A01 T00670067  RH  100%=      5-min Rain = 0
KBO1 160914Z 17009KT 07/07 A2989 RMK A01 T00670067  RH  100%=      5-min Rain = 0
KBO1 160915Z 17011KT 07/07 A2989 RMK A01 T00670067  RH  100%=      5-min Rain = 0
KBO1 160916Z 17010KT 07/07 A2989 RMK A01 T00670067  RH  100%=      5-min Rain = 0
KBO1 160917Z 17009KT 07/07 A2989 RMK A01 T00670067  RH  100%=      5-min Rain = 0
KBO1 160918Z 17010KT 07/07 A2989 RMK A01 T00670067  RH  100%=      5-min Rain = 0
KBO1 160919Z 17010KT 07/07 A2989 RMK A01 T00670067  RH  100%=      5-min Rain = 0
KBO1 160920Z 17010KT 07/07 A2989 RMK A01 T00670067  RH  100%=      5-min Rain = 0
KBO1 160921Z 17010KT 07/07 A2989 RMK A01 T00670067  RH  100%=      5-min Rain = 0
KBO1 160922Z 17010KT 07/07 A2989 RMK A01 T00670067  RH  100%=      5-min Rain = 0
KBO1 160923Z 17009KT 07/07 A2989 RMK A01 T00670067  RH  100%=      5-min Rain = 0
KBO1 160924Z 17011KT 07/07 A2989 RMK A01 T00670067  RH  100%=      5-min Rain = 0
KBO1 160925Z 17013KT 07/07 A2989 RMK A01 T00670067  RH  100%=      5-min Rain = 0
KBO1 160926Z 17014KT 07/07 A2989 RMK A01 T00670067  RH  100%=      5-min Rain = 0
KBO1 160927Z 17012KT 07/07 A2989 RMK A01 T00670067  RH  100%=      5-min Rain = 0
KBO1 160928Z 17011KT 07/07 A2989 RMK A01 T00670067  RH  100%=      5-min Rain = 0
KBO1 160929Z 17009KT 07/07 A2989 RMK A01 T00670067  RH  100%=      5-min Rain = 0
KBO1 160930Z 17008KT 07/07 A2989 RMK A01 T00670067  RH  100%=      5-min Rain = 0
KBO1 160931Z 18009KT 07/07 A2989 RMK A01 T00670067  RH  100%=      5-min Rain = 0
KBO1 160932Z 17011KT 07/07 A2989 RMK A01 T00670067  RH  100%=      5-min Rain = 0
KBO1 160933Z 18010KT 07/07 A2989 RMK A01 T00670067  RH  100%=      5-min Rain = 0
KBO1 160934Z 18011KT 07/07 A2989 RMK A01 T00670067  RH  100%=      5-min Rain = 0
KBO1 160935Z 18011KT 07/07 A2989 RMK A01 T00670067  RH  100%=      5-min Rain = 0
KBO1 160936Z 18009KT 07/07 A2989 RMK A01 T00670067  RH  100%=      5-min Rain = 0
KBO1 160937Z 18010KT 07/07 A2989 RMK A01 T00670067  RH  100%=      5-min Rain = 0
KBO1 160938Z 18011KT 07/07 A2989 RMK A01 T00670067  RH  100%=      5-min Rain = 0
KBO1 160939Z 19012KT 07/07 A2989 RMK A01 T00670067  RH  100%=      5-min Rain = 0
KBO1 160940Z 19010KT 07/07 A2989 RMK A01 T00670067  RH  100%=      5-min Rain = 0
KBO1 160941Z 18009KT 07/07 A2989 RMK A01 T00670067  RH  100%=      5-min Rain = 0
KBO1 160942Z 18009KT 07/07 A2989 RMK A01 T00670067  RH  100%=      5-min Rain = 0
KBO1 160943Z 19009KT 07/07 A2989 RMK A01 T00670067  RH  100%=      5-min Rain = 0
KBO1 160944Z 19010KT 07/07 A2989 RMK A01 T00680068  RH  100%=      5-min Rain = 0
KBO1 160945Z 19009KT 07/07 A2989 RMK A01 T00670067  RH  100%=      5-min Rain = 0
KBO1 160946Z 18010KT 07/07 A2989 RMK A01 T00670067  RH  100%=      5-min Rain = 0
KBO1 160947Z 19010KT 07/07 A2989 RMK A01 T00670067  RH  100%=      5-min Rain = 0
KBO1 160948Z 20009KT 07/07 A2989 RMK A01 T00670067  RH  100%=      5-min Rain = 0
KBO1 160949Z 19010KT 07/07 A2989 RMK A01 T00670067  RH  100%=      5-min Rain = 0
KBO1 160950Z 19008KT 07/07 A2989 RMK A01 T00670067  RH  100%=      5-min Rain = 0
KBO1 160951Z 19007KT 07/07 A299 RMK A01 T00670067  RH  100%=      5-min Rain = 0
KBO1 160952Z 19007KT 07/07 A299 RMK A01 T00670067  RH  100%=      5-min Rain = 0
KBO1 160953Z 18008KT 07/07 A299 RMK A01 T00670067  RH  100%=      5-min Rain = 0
KBO1 160954Z 18008KT 07/07 A299 RMK A01 T00670067  RH  100%=      5-min Rain = 0
KBO1 160955Z 18009KT 07/07 A299 RMK A01 T00670067  RH  100%=      5-min Rain = 0
KBO1 160956Z 19007KT 07/07 A2991 RMK A01 T00670067  RH  100%=      5-min Rain = 0
KBO1 160957Z 18007KT 07/07 A2991 RMK A01 T00670067  RH  100%=      5-min Rain = 0
KBO1 160958Z 19006KT 07/07 A2991 RMK A01 T00670067  RH  100%=      5-min Rain = 0
KBO1 160959Z 19006KT 07/07 A2991 RMK A01 T00670067  RH  100%=      5-min Rain = 0
KBO1 161000Z 20006KT 07/07 A2991 RMK A01 T00670067  RH  100%=      5-min Rain = 0
KBO1 161001Z 20006KT 07/07 A2991 RMK A01 T00670067  RH  100%=      5-min Rain = 0
KBO1 161002Z 21006KT 07/07 A2991 RMK A01 T00670067  RH  100%=      5-min Rain = 0
KBO1 161003Z 20005KT 07/07 A2991 RMK A01 T00670067  RH  100%=      5-min Rain = 0
KBO1 161004Z 21007KT 07/07 A2991 RMK A01 T00680068  RH  100%=      5-min Rain = 0
KBO1 161005Z 21007KT 07/07 A2991 RMK A01 T00680068  RH  100%=      5-min Rain = 0
KBO1 161006Z 21008KT 07/07 A2991 RMK A01 T00680068  RH  100%=      5-min Rain = 0
KBO1 161007Z 22007KT 07/07 A2991 RMK A01 T00680068  RH  100%=      5-min Rain = 0
KBO1 161008Z 21007KT 07/07 A2991 RMK A01 T00680068  RH  100%=      5-min Rain = 0
KBO1 161009Z 22007KT 07/07 A2991 RMK A01 T00680068  RH  100%=      5-min Rain = 0
KBO1 161010Z 22008KT 07/07 A2991 RMK A01 T00680068  RH  100%=      5-min Rain = 0
KBO1 161011Z 22008KT 07/07 A2991 RMK A01 T00680068  RH  100%=      5-min Rain = 0
KBO1 161012Z 21008KT 07/07 A2991 RMK A01 T00680068  RH  100%=      5-min Rain = 0
KBO1 161013Z 21006KT 07/07 A2991 RMK A01 T00680068  RH  100%=      5-min Rain = 0
KBO1 161014Z 21006KT 07/07 A2991 RMK A01 T00680068  RH  100%=      5-min Rain = 0
KBO1 161015Z 21006KT 07/07 A2991 RMK A01 T00680068  RH  100%=      5-min Rain = 0
KBO1 161016Z 21005KT 07/07 A2991 RMK A01 T00680068  RH  100%=      5-min Rain = 0
KBO1 161017Z 20006KT 07/07 A2991 RMK A01 T00680069  RH  100%=      5-min Rain = 0
KBO1 161018Z 20007KT 07/07 A2991 RMK A01 T00690069  RH  100%=      5-min Rain = 0
KBO1 161019Z 21006KT 07/07 A2991 RMK A01 T00680068  RH  100%=      5-min Rain = 0
KBO1 161020Z 21006KT 07/07 A2991 RMK A01 T00690069  RH  100%=      5-min Rain = 0
KBO1 161021Z 21007KT 07/07 A2991 RMK A01 T00690069  RH  100%=      5-min Rain = 0
KBO1 161022Z 21007KT 07/07 A2991 RMK A01 T00690069  RH  100%=      5-min Rain = 0
KBO1 161023Z 20006KT 07/07 A2991 RMK A01 T00690069  RH  100%=      5-min Rain = 0
KBO1 161024Z 20006KT 07/07 A2991 RMK A01 T00690069  RH  100%=      5-min Rain = 0
KBO1 161025Z 20006KT 07/07 A2991 RMK A01 T00690069  RH  100%=      5-min Rain = 0
KBO1 161026Z 21005KT 07/07 A2991 RMK A01 T00690069  RH  100%=      5-min Rain = 0
KBO1 161027Z 22006KT 07/07 A2991 RMK A01 T00690069  RH  100%=      5-min Rain = 0
KBO1 161028Z 22006KT 07/07 A2991 RMK A01 T00690069  RH  100%=      5-min Rain = 0
KBO1 161029Z 22006KT 07/07 A2991 RMK A01 T00690069  RH  100%=      5-min Rain = 0
KBO1 161030Z 22006KT 07/07 A2991 RMK A01 T00690069  RH  100%=      5-min Rain = 0
KBO1 161031Z 21006KT 07/07 A2991 RMK A01 T00690069  RH  100%=      5-min Rain = 0
KBO1 161032Z 22008KT 07/07 A2991 RMK A01 T00690069  RH  100%=      5-min Rain = 0
KBO1 161033Z 22008KT 07/07 A2991 RMK A01 T00690069  RH  100%=      5-min Rain = 0
KBO1 161034Z 22008KT 07/07 A2991 RMK A01 T00700070  RH  100%=      5-min Rain = 0
KBO1 161035Z 21008KT 07/07 A2991 RMK A01 T00700070  RH  100%=      5-min Rain = 0
KBO1 161036Z 22008KT 07/07 A2991 RMK A01 T00700070  RH  100%=      5-min Rain = 0
KBO1 161037Z 22007KT 07/07 A2991 RMK A01 T00700070  RH  100%=      5-min Rain = 0
KBO1 161038Z 21007KT 07/07 A2991 RMK A01 T00700070  RH  100%=      5-min Rain = 0
KBO1 161039Z 21007KT 07/07 A2991 RMK A01 T00700070  RH  100%=      5-min Rain = 0
KBO1 161040Z 21006KT 07/07 A2991 RMK A01 T00700070  RH  100%=      5-min Rain = 0
KBO1 161041Z 21005KT 07/07 A2991 RMK A01 T00700070  RH  100%=      5-min Rain = 0
KBO1 161042Z 21007KT 07/07 A2991 RMK A01 T00700070  RH  100%=      5-min Rain = 0
KBO1 161043Z 21007KT 07/07 A2991 RMK A01 T00700070  RH  100%=      5-min Rain = 0
KBO1 161044Z 20007KT 07/07 A2991 RMK A01 T00700070  RH  100%=      5-min Rain = 0
KBO1 161045Z 20006KT 07/07 A2991 RMK A01 T00700070  RH  100%=      5-min Rain = 0
KBO1 161046Z 21005KT 07/07 A2991 RMK A01 T00700070  RH  100%=      5-min Rain = 0
KBO1 161047Z 21006KT 07/07 A2991 RMK A01 T00700070  RH  100%=      5-min Rain = 0
KBO1 161048Z 21005KT 07/07 A2991 RMK A01 T00700070  RH  100%=      5-min Rain = 0
KBO1 161049Z 21005KT 07/07 A2991 RMK A01 T00700070  RH  100%=      5-min Rain = 0
KBO1 161050Z 21005KT 07/07 A2991 RMK A01 T00710071  RH  100%=      5-min Rain = 0
KBO1 161051Z 22006KT 07/07 A2991 RMK A01 T00700070  RH  100%=      5-min Rain = 0
KBO1 161052Z 21005KT 07/07 A2991 RMK A01 T00700070  RH  100%=      5-min Rain = 0
KBO1 161053Z 21005KT 07/07 A2991 RMK A01 T00700070  RH  100%=      5-min Rain = 0
KBO1 161054Z 22005KT 07/07 A2991 RMK A01 T00700070  RH  100%=      5-min Rain = 0
KBO1 161055Z 21006KT 07/07 A2991 RMK A01 T00710071  RH  100%=      5-min Rain = 0
KBO1 161056Z 20006KT 07/07 A2991 RMK A01 T00710071  RH  100%=      5-min Rain = 0
KBO1 161057Z 20006KT 07/07 A2991 RMK A01 T00700070  RH  100%=      5-min Rain = 0
KBO1 161058Z 20007KT 07/07 A2991 RMK A01 T00700070  RH  100%=      5-min Rain = 0
KBO1 161059Z 20007KT 07/07 A2991 RMK A01 T00700070  RH  100%=      5-min Rain = 0
KBO1 161100Z 20006KT 07/07 A2991 RMK A01 T00700070  RH  100%=      5-min Rain = 0
KBO1 161101Z 21007KT 07/07 A2991 RMK A01 T00700070  RH  100%=      5-min Rain = 0
KBO1 161102Z 21006KT 07/07 A2991 RMK A01 T00700070  RH  100%=      5-min Rain = 0
KBO1 161103Z 21006KT 07/07 A2991 RMK A01 T00700070  RH  100%=      5-min Rain = 0
KBO1 161104Z 21006KT 07/07 A2991 RMK A01 T00700070  RH  100%=      5-min Rain = 0
KBO1 161105Z 21005KT 07/07 A2991 RMK A01 T00700070  RH  100%=      5-min Rain = 0
KBO1 161106Z 19004KT 07/07 A2991 RMK A01 T00700070  RH  100%=      5-min Rain = 0
KBO1 161107Z 19006KT 07/07 A2991 RMK A01 T00690069  RH  100%=      5-min Rain = 0
KBO1 161108Z 19005KT 07/07 A2991 RMK A01 T00690069  RH  100%=      5-min Rain = 0
KBO1 161109Z 20005KT 07/07 A2991 RMK A01 T00700070  RH  100%=      5-min Rain = 0
KBO1 161110Z 20004KT 07/07 A2991 RMK A01 T00690069  RH  100%=      5-min Rain = 0
KBO1 161111Z 20005KT 07/07 A2991 RMK A01 T00690069  RH  100%=      5-min Rain = 0
KBO1 161112Z 21004KT 07/07 A2991 RMK A01 T00690069  RH  100%=      5-min Rain = 0
KBO1 161113Z 22005KT 07/07 A2991 RMK A01 T00690069  RH  100%=      5-min Rain = 0
KBO1 161114Z 22005KT 07/07 A2991 RMK A01 T00690069  RH  100%=      5-min Rain = 0
KBO1 161115Z 22004KT 07/07 A2991 RMK A01 T00690069  RH  100%=      5-min Rain = 0
KBO1 161116Z 21004KT 07/07 A2991 RMK A01 T00700070  RH  100%=      5-min Rain = 0
KBO1 161117Z 21004KT 07/07 A2991 RMK A01 T00690069  RH  100%=      5-min Rain = 0
KBO1 161118Z 21004KT 07/07 A2991 RMK A01 T00700070  RH  100%=      5-min Rain = 0
KBO1 161119Z 21004KT 07/07 A2991 RMK A01 T00690069  RH  100%=      5-min Rain = 0
KBO1 161120Z 21004KT 07/07 A2991 RMK A01 T00690069  RH  100%=      5-min Rain = 0
KBO1 161121Z 22004KT 07/07 A2991 RMK A01 T00690069  RH  100%=      5-min Rain = 0
KBO1 161122Z 23004KT 07/07 A2991 RMK A01 T00700070  RH  100%=      5-min Rain = 0
KBO1 161123Z 23004KT 07/07 A2991 RMK A01 T00690069  RH  100%=      5-min Rain = 0
KBO1 161124Z 23003KT 07/07 A2991 RMK A01 T00700070  RH  100%=      5-min Rain = 0
KBO1 161125Z 23003KT 07/07 A2991 RMK A01 T00700070  RH  100%=      5-min Rain = 0
KBO1 161126Z 24002KT 07/07 A2991 RMK A01 T00690070  RH  100%=      5-min Rain = 0
KBO1 161127Z 24004KT 07/07 A2991 RMK A01 T00700070  RH  100%=      5-min Rain = 0
KBO1 161128Z 25004KT 07/07 A2991 RMK A01 T00690069  RH  100%=      5-min Rain = 0
KBO1 161129Z 26004KT 07/07 A2991 RMK A01 T00700070  RH  100%=      5-min Rain = 0
KBO1 161130Z 25004KT 07/07 A2991 RMK A01 T00690069  RH  100%=      5-min Rain = 0
KBO1 161131Z 25004KT 07/07 A2991 RMK A01 T00700070  RH  100%=      5-min Rain = 0
KBO1 161132Z 25004KT 07/07 A2991 RMK A01 T00700070  RH  100%=      5-min Rain = 0
KBO1 161133Z 25003KT 07/07 A2991 RMK A01 T00700070  RH  100%=      5-min Rain = 0
KBO1 161134Z 24003KT 07/07 A2992 RMK A01 T00700070  RH  100%=      5-min Rain = 0
KBO1 161135Z 25003KT 07/07 A2992 RMK A01 T00700070  RH  100%=      5-min Rain = 0
KBO1 161136Z 24003KT 07/07 A2992 RMK A01 T00690069  RH  100%=      5-min Rain = 0
KBO1 161137Z 24003KT 07/07 A2992 RMK A01 T00690069  RH  100%=      5-min Rain = 0
KBO1 161138Z 23003KT 07/07 A2992 RMK A01 T00700070  RH  100%=      5-min Rain = 0
KBO1 161139Z 23003KT 07/07 A2992 RMK A01 T00700070  RH  100%=      5-min Rain = 0
KBO1 161140Z 23005KT 07/07 A2992 RMK A01 T00690069  RH  100%=      5-min Rain = 0
KBO1 161141Z 25005KT 07/07 A2992 RMK A01 T00700070  RH  100%=      5-min Rain = 0
KBO1 161142Z 25004KT 07/07 A2992 RMK A01 T00700070  RH  100%=      5-min Rain = 0
KBO1 161143Z 26003KT 07/07 A2992 RMK A01 T00710071  RH  100%=      5-min Rain = 0
KBO1 161144Z 26002KT 07/07 A2992 RMK A01 T00710071  RH  100%=      5-min Rain = 0
KBO1 161145Z 26002KT 07/07 A2992 RMK A01 T00710071  RH  100%=      5-min Rain = 0
KBO1 161146Z 27002KT 07/07 A2992 RMK A01 T00710071  RH  100%=      5-min Rain = 0
KBO1 161147Z 28002KT 07/07 A2992 RMK A01 T00710071  RH  100%=      5-min Rain = 0
KBO1 161148Z 29002KT 07/07 A2992 RMK A01 T00710071  RH  100%=      5-min Rain = 0
KBO1 161149Z 29002KT 07/07 A2992 RMK A01 T00710071  RH  100%=      5-min Rain = 0
KBO1 161150Z 29002KT 07/07 A2993 RMK A01 T00720072  RH  100%=      5-min Rain = 0
KBO1 161151Z 28002KT 07/07 A2993 RMK A01 T00710071  RH  100%=      5-min Rain = 0
KBO1 161152Z 27001KT 07/07 A2992 RMK A01 T00710071  RH  100%=      5-min Rain = 0
KBO1 161153Z 26002KT 07/07 A2992 RMK A01 T00710071  RH  100%=      5-min Rain = 0
KBO1 161154Z 25001KT 07/07 A2992 RMK A01 T00710071  RH  100%=      5-min Rain = 0
KBO1 161155Z 24002KT 07/07 A2992 RMK A01 T00720072  RH  100%=      5-min Rain = 0
KBO1 161156Z 24003KT 07/07 A2992 RMK A01 T00710071  RH  100%=      5-min Rain = 0
KBO1 161157Z 24002KT 07/07 A2992 RMK A01 T00710071  RH  100%=      5-min Rain = 0
KBO1 161158Z 25002KT 07/07 A2992 RMK A01 T00710071  RH  100%=      5-min Rain = 0
KBO1 161159Z 25002KT 07/07 A2992 RMK A01 T00720072  RH  100%=      5-min Rain = 0
KBO1 161200Z 25002KT 07/07 A2992 RMK A01 T00720072  RH  100%=      5-min Rain = 0
KBO1 161201Z 24002KT 07/07 A2992 RMK A01 T00720072  RH  100%=      5-min Rain = 0
KBO1 161202Z 25002KT 07/07 A2993 RMK A01 T00720072  RH  100%=      5-min Rain = 0
KBO1 161203Z 24002KT 07/07 A2993 RMK A01 T00720072  RH  100%=      5-min Rain = 0
KBO1 161204Z 24002KT 07/07 A2993 RMK A01 T00720072  RH  100%=      5-min Rain = 0
KBO1 161205Z 25003KT 07/07 A2993 RMK A01 T00720072  RH  100%=      5-min Rain = 0
KBO1 161206Z 26003KT 07/07 A2993 RMK A01 T00720072  RH  100%=      5-min Rain = 0
KBO1 161207Z 27003KT 07/07 A2993 RMK A01 T00720072  RH  100%=      5-min Rain = 0
KBO1 161208Z 27002KT 07/07 A2993 RMK A01 T00720072  RH  100%=      5-min Rain = 0
KBO1 161209Z 26002KT 07/07 A2993 RMK A01 T00720073  RH  100%=      5-min Rain = 0
KBO1 161210Z 26002KT 07/07 A2993 RMK A01 T00720072  RH  100%=      5-min Rain = 0
KBO1 161211Z 25002KT 07/07 A2993 RMK A01 T00720072  RH  100%=      5-min Rain = 0
KBO1 161212Z 25003KT 07/07 A2993 RMK A01 T00720072  RH  100%=      5-min Rain = 0
KBO1 161213Z 25003KT 07/07 A2993 RMK A01 T00720072  RH  100%=      5-min Rain = 0
KBO1 161214Z 25002KT 07/07 A2993 RMK A01 T00720072  RH  100%=      5-min Rain = 0
KBO1 161215Z 25003KT 07/07 A2993 RMK A01 T00720072  RH  100%=      5-min Rain = 0
KBO1 161216Z 26003KT 07/07 A2993 RMK A01 T00720072  RH  100%=      5-min Rain = 0
KBO1 161217Z 27002KT 07/07 A2993 RMK A01 T00720072  RH  100%=      5-min Rain = 0
KBO1 161218Z 28002KT 07/07 A2993 RMK A01 T00720072  RH  100%=      5-min Rain = 0
KBO1 161219Z 29002KT 07/07 A2993 RMK A01 T00730073  RH  100%=      5-min Rain = 0
KBO1 161220Z 29002KT 07/07 A2993 RMK A01 T00730073  RH  100%=      5-min Rain = 0
KBO1 161221Z 28002KT 07/07 A2994 RMK A01 T00730073  RH  100%=      5-min Rain = 0
KBO1 161222Z 28002KT 07/07 A2994 RMK A01 T00730073  RH  100%=      5-min Rain = 0
KBO1 161223Z 28002KT 07/07 A2994 RMK A01 T00730073  RH  100%=      5-min Rain = 0
KBO1 161224Z 28002KT 07/07 A2994 RMK A01 T00730073  RH  100%=      5-min Rain = 0
KBO1 161225Z 28002KT 07/07 A2994 RMK A01 T00730073  RH  100%=      5-min Rain = 0
KBO1 161226Z 28002KT 07/07 A2994 RMK A01 T00730073  RH  100%=      5-min Rain = 0
KBO1 161227Z 29002KT 07/07 A2994 RMK A01 T00730073  RH  100%=      5-min Rain = 0
KBO1 161228Z 29003KT 07/07 A2994 RMK A01 T00730073  RH  100%=      5-min Rain = 0
KBO1 161229Z 30003KT 07/07 A2994 RMK A01 T00730073  RH  100%=      5-min Rain = 0
KBO1 161230Z 30002KT 07/07 A2994 RMK A01 T00730073  RH  100%=      5-min Rain = 0
KBO1 161231Z 30002KT 07/07 A2994 RMK A01 T00730073  RH  100%=      5-min Rain = 0
KBO1 161232Z 29002KT 07/07 A2994 RMK A01 T00730073  RH  100%=      5-min Rain = 0
KBO1 161233Z 29003KT 07/07 A2994 RMK A01 T00730073  RH  100%=      5-min Rain = 0
KBO1 161234Z 29003KT 07/07 A2994 RMK A01 T00730073  RH  100%=      5-min Rain = 0
KBO1 161235Z 30003KT 07/07 A2994 RMK A01 T00730073  RH  100%=      5-min Rain = 0
KBO1 161236Z 30004KT 07/07 A2994 RMK A01 T00730073  RH  100%=      5-min Rain = 0
KBO1 161237Z 30004KT 07/07 A2994 RMK A01 T00730073  RH  100%=      5-min Rain = 0
KBO1 161238Z 30005KT 07/07 A2994 RMK A01 T00730073  RH  100%=      5-min Rain = 0
KBO1 161239Z 30004KT 07/07 A2994 RMK A01 T00730073  RH  100%=      5-min Rain = 0
KBO1 161240Z 30004KT 07/07 A2994 RMK A01 T00720072  RH  100%=      5-min Rain = 0
KBO1 161241Z 31005KT 07/07 A2994 RMK A01 T00730073  RH  100%=      5-min Rain = 0
KBO1 161242Z 31005KT 07/07 A2994 RMK A01 T00720072  RH  100%=      5-min Rain = 0
KBO1 161243Z 31005KT 07/07 A2994 RMK A01 T00720072  RH  100%=      5-min Rain = 0
KBO1 161244Z 31005KT 07/07 A2994 RMK A01 T00720072  RH  100%=      5-min Rain = 0
KBO1 161245Z 31005KT 07/07 A2994 RMK A01 T00710071  RH  100%=      5-min Rain = 0
KBO1 161246Z 31005KT 07/07 A2994 RMK A01 T00710071  RH  100%=      5-min Rain = 0
KBO1 161247Z 31004KT 07/07 A2994 RMK A01 T00710071  RH  100%=      5-min Rain = 0
KBO1 161248Z 31004KT 07/07 A2995 RMK A01 T00710071  RH  100%=      5-min Rain = 0
KBO1 161249Z 31005KT 07/07 A2995 RMK A01 T00710071  RH  100%=      5-min Rain = 0
KBO1 161250Z 31005KT 07/07 A2995 RMK A01 T00710071  RH  100%=      5-min Rain = 0
KBO1 161251Z 31006KT 07/07 A2995 RMK A01 T00710071  RH  100%=      5-min Rain = 0
KBO1 161252Z 30006KT 07/07 A2995 RMK A01 T00710071  RH  100%=      5-min Rain = 0
KBO1 161253Z 31006KT 07/07 A2995 RMK A01 T00710071  RH  100%=      5-min Rain = 0
KBO1 161254Z 31005KT 07/07 A2995 RMK A01 T00710071  RH  100%=      5-min Rain = 0
KBO1 161255Z 31005KT 07/07 A2995 RMK A01 T00710071  RH  100%=      5-min Rain = 0
KBO1 161256Z 32007KT 07/07 A2995 RMK A01 T00710071  RH  100%=      5-min Rain = 0
KBO1 161257Z 31007KT 07/07 A2995 RMK A01 T00710071  RH  100%=      5-min Rain = 0
KBO1 161258Z 31006KT 07/07 A2995 RMK A01 T00700070  RH  100%=      5-min Rain = 0
KBO1 161259Z 31008KT 07/07 A2995 RMK A01 T00700071  RH  100%=      5-min Rain = 0
KBO1 161300Z 31007KT 07/07 A2995 RMK A01 T00700070  RH  100%=      5-min Rain = 0
KBO1 161301Z 31006KT 07/07 A2995 RMK A01 T00700070  RH  100%=      5-min Rain = 0
KBO1 161302Z 31006KT 07/07 A2995 RMK A01 T00700070  RH  100%=      5-min Rain = 0
KBO1 161303Z 30005KT 07/07 A2995 RMK A01 T00690069  RH  100%=      5-min Rain = 0
KBO1 161304Z 30005KT 07/07 A2995 RMK A01 T00690069  RH  100%=      5-min Rain = 0
KBO1 161305Z 30005KT 07/07 A2995 RMK A01 T00700070  RH  100%=      5-min Rain = 0
KBO1 161306Z 29004KT 07/07 A2995 RMK A01 T00700070  RH  100%=      5-min Rain = 0
KBO1 161307Z 30005KT 07/07 A2995 RMK A01 T00690069  RH  100%=      5-min Rain = 0
KBO1 161308Z 29004KT 07/07 A2995 RMK A01 T00700070  RH  100%=      5-min Rain = 0
KBO1 161309Z 29004KT 07/07 A2995 RMK A01 T00690069  RH  100%=      5-min Rain = 0
KBO1 161310Z 28004KT 07/07 A2995 RMK A01 T00700070  RH  100%=      5-min Rain = 0
KBO1 161311Z 28004KT 07/07 A2995 RMK A01 T00700070  RH  100%=      5-min Rain = 0
KBO1 161312Z 28004KT 07/07 A2995 RMK A01 T00700070  RH  100%=      5-min Rain = 0
KBO1 161313Z 28004KT 07/07 A2995 RMK A01 T00700070  RH  100%=      5-min Rain = 0
KBO1 161314Z 29005KT 07/07 A2995 RMK A01 T00700070  RH  100%=      5-min Rain = 0
KBO1 161315Z 29004KT 07/07 A2996 RMK A01 T00700070  RH  100%=      5-min Rain = 0
KBO1 161316Z 29004KT 07/07 A2996 RMK A01 T00700070  RH  100%=      5-min Rain = 0
KBO1 161317Z 29004KT 07/07 A2996 RMK A01 T00700070  RH  100%=      5-min Rain = 0
KBO1 161318Z 29005KT 07/07 A2996 RMK A01 T00710071  RH  100%=      5-min Rain = 0
KBO1 161319Z 29005KT 07/07 A2996 RMK A01 T00710071  RH  100%=      5-min Rain = 0
KBO1 161320Z 29003KT 07/07 A2996 RMK A01 T00700071  RH  100%=      5-min Rain = 0
KBO1 161321Z 30004KT 07/07 A2996 RMK A01 T00710071  RH  100%=      5-min Rain = 0
KBO1 161322Z 29003KT 07/07 A2996 RMK A01 T00720072  RH  100%=      5-min Rain = 0
KBO1 161323Z 28004KT 07/07 A2996 RMK A01 T00720072  RH  100%=      5-min Rain = 0
KBO1 161324Z 30005KT 07/07 A2996 RMK A01 T00720072  RH  100%=      5-min Rain = 0
KBO1 161325Z 31004KT 07/07 A2996 RMK A01 T00710071  RH  100%=      5-min Rain = 0
KBO1 161326Z 29005KT 07/07 A2996 RMK A01 T00700070  RH  100%=      5-min Rain = 0
KBO1 161327Z 29004KT 07/07 A2996 RMK A01 T00700070  RH  100%=      5-min Rain = 0
KBO1 161328Z 31005KT 07/07 A2996 RMK A01 T00700070  RH  100%=      5-min Rain = 0
KBO1 161329Z 31006KT 07/07 A2996 RMK A01 T00700070  RH  100%=      5-min Rain = 0
KBO1 161330Z 30006KT 07/07 A2996 RMK A01 T00700070  RH  100%=      5-min Rain = 0
KBO1 161331Z 30006KT 07/07 A2996 RMK A01 T00700070  RH  100%=      5-min Rain = 0
KBO1 161332Z 32006KT 07/07 A2996 RMK A01 T00700070  RH  100%=      5-min Rain = 0
KBO1 161333Z 33005KT 07/07 A2996 RMK A01 T00700070  RH  100%=      5-min Rain = 0
KBO1 161334Z 33005KT 07/07 A2996 RMK A01 T00700070  RH  100%=      5-min Rain = 0
KBO1 161335Z 33006KT 07/07 A2996 RMK A01 T00700070  RH  100%=      5-min Rain = 0
KBO1 161336Z 33005KT 07/07 A2996 RMK A01 T00710071  RH  100%=      5-min Rain = 0
KBO1 161337Z 33006KT 07/07 A2996 RMK A01 T00720072  RH  100%=      5-min Rain = 0
KBO1 161338Z 33007KT 07/07 A2996 RMK A01 T00730073  RH  100%=      5-min Rain = 0
KBO1 161339Z 33007KT 07/07 A2996 RMK A01 T00740074  RH  100%=      5-min Rain = 0
KBO1 161340Z 33007KT 08/08 A2996 RMK A01 T00750075  RH  100%=      5-min Rain = 0
KBO1 161341Z 33007KT 08/08 A2996 RMK A01 T00760076  RH  100%=      5-min Rain = 0
KBO1 161342Z 34007KT 08/08 A2997 RMK A01 T00760076  RH  100%=      5-min Rain = 0
KBO1 161343Z 34007KT 08/08 A2997 RMK A01 T00760076  RH  100%=      5-min Rain = 0
KBO1 161344Z 34008KT 08/08 A2997 RMK A01 T00760076  RH  100%=      5-min Rain = 0
KBO1 161345Z 34008KT 08/08 A2997 RMK A01 T00770077  RH  100%=      5-min Rain = 0
KBO1 161346Z 34009KT 08/08 A2997 RMK A01 T00770077  RH  100%=      5-min Rain = 0
KBO1 161347Z 34009KT 08/08 A2997 RMK A01 T00770077  RH  100%=      5-min Rain = 0
KBO1 161348Z 34010KT 08/08 A2997 RMK A01 T00770077  RH  100%=      5-min Rain = 0
KBO1 161349Z 34010KT 08/08 A2997 RMK A01 T00770077  RH  100%=      5-min Rain = 0
KBO1 161350Z 34010KT 08/08 A2997 RMK A01 T00760076  RH  100%=      5-min Rain = 0
KBO1 161351Z 33010KT 08/08 A2997 RMK A01 T00760076  RH  100%=      5-min Rain = 0
KBO1 161352Z 33011KT 08/08 A2997 RMK A01 T00760076  RH  100%=      5-min Rain = 0
KBO1 161353Z 33010KT 08/08 A2997 RMK A01 T00760076  RH  100%=      5-min Rain = 0
KBO1 161354Z 33010KT 08/08 A2997 RMK A01 T00760076  RH  100%=      5-min Rain = 0
KBO1 161355Z 33011KT 08/08 A2997 RMK A01 T00760076  RH  100%=      5-min Rain = 0
KBO1 161356Z 33010KT 08/08 A2997 RMK A01 T00760076  RH  100%=      5-min Rain = 0
KBO1 161357Z 34011KT 08/08 A2997 RMK A01 T00760076  RH  100%=      5-min Rain = 0
KBO1 161358Z 34009KT 08/08 A2997 RMK A01 T00760076  RH  100%=      5-min Rain = 0
KBO1 161359Z 34010KT 08/08 A2997 RMK A01 T00760076  RH  100%=      5-min Rain = 0
KBO1 161400Z 33009KT 08/08 A2997 RMK A01 T00760076  RH  100%=      5-min Rain = 0
KBO1 161401Z 33010KT 08/08 A2997 RMK A01 T00760076  RH  100%=      5-min Rain = 0
KBO1 161402Z 33009KT 08/08 A2997 RMK A01 T00770077  RH  100%=      5-min Rain = 0
KBO1 161403Z 33009KT 08/08 A2997 RMK A01 T00770077  RH  100%=      5-min Rain = 0
KBO1 161404Z 33010KT 08/08 A2997 RMK A01 T00760076  RH  100%=      5-min Rain = 0
KBO1 161405Z 33008KT 08/08 A2997 RMK A01 T00760076  RH  100%=      5-min Rain = 0
KBO1 161406Z 32009KT 08/08 A2997 RMK A01 T00760076  RH  100%=      5-min Rain = 0
KBO1 161407Z 32009KT 08/08 A2997 RMK A01 T00760076  RH  100%=      5-min Rain = 0
KBO1 161408Z 32007KT 08/08 A2997 RMK A01 T00760076  RH  100%=      5-min Rain = 0
KBO1 161409Z 33008KT 08/08 A2997 RMK A01 T00770077  RH  100%=      5-min Rain = 0
KBO1 161410Z 33008KT 08/08 A2997 RMK A01 T00780078  RH  100%=      5-min Rain = 0
KBO1 161411Z 34008KT 08/08 A2998 RMK A01 T00810081  RH  100%=      5-min Rain = 0
KBO1 161412Z 33011KT 08/08 A2998 RMK A01 T00800080  RH  100%=      5-min Rain = 0
KBO1 161413Z 33010KT 08/08 A2998 RMK A01 T00800080  RH  100%=      5-min Rain = 0
KBO1 161414Z 33012KT 08/08 A2998 RMK A01 T00790080  RH  100%=      5-min Rain = 0
KBO1 161415Z 34011KT 08/08 A2998 RMK A01 T00790079  RH  100%=      5-min Rain = 0
KBO1 161416Z 35016G25KT 08/08 A2998 RMK A01 T00800080  RH  100%=      5-min Rain = 0
KBO1 161417Z 35022KT 07/07 A2999 RMK A01 T00740074  RH  100%=      5-min Rain = 0
KBO1 161418Z 36020KT 07/07 A2999 RMK A01 T00650065  RH  100%=      5-min Rain = 0
KBO1 161419Z 01020KT 06/06 A2999 RMK A01 T00620062  RH  100%=      5-min Rain = 0
KBO1 161420Z 01021KT 06/06 A2999 RMK A01 T00590059  RH  100%=      5-min Rain = 0
KBO1 161421Z 01022G27KT 06/06 A2999 RMK A01 T00580058  RH  100%=      5-min Rain = 0
KBO1 161422Z 01022KT 06/06 A2999 RMK A01 T00560056  RH  100%=      5-min Rain = 0
KBO1 161423Z 01021KT 06/06 A2999 RMK A01 T00550055  RH  100%=      5-min Rain = 0
KBO1 161424Z 01021G27KT 05/05 A2999 RMK A01 T00540054  RH  100%=      5-min Rain = 0
KBO1 161425Z 01024KT 05/05 A2999 RMK A01 T00540054  RH  100%=      5-min Rain = 0
KBO1 161426Z 01025KT 05/05 A2999 RMK A01 T00520052  RH  100%=      5-min Rain = 0
KBO1 161427Z 00020G25KT 05/05 A30 RMK A01 T00500050  RH  100%=      5-min Rain = 0
KBO1 161428Z 01024KT 05/05 A30 RMK A01 T00500050  RH  100%=      5-min Rain = 0
KBO1 161429Z 01024KT 05/05 A30 RMK A01 T00500050  RH  100%=      5-min Rain = 0
KBO1 161430Z 01024KT 05/05 A30 RMK A01 T00490049  RH  100%=      5-min Rain = 0
KBO1 161431Z 00020KT 05/05 A30 RMK A01 T00500050  RH  100%=      5-min Rain = 0
KBO1 161432Z 01021KT 05/05 A30 RMK A01 T00490049  RH  100%=      5-min Rain = 0
KBO1 161433Z 02017G23KT 05/05 A30 RMK A01 T00500050  RH  100%=      5-min Rain = 0
KBO1 161434Z 01022KT 05/05 A30 RMK A01 T00500050  RH  100%=      5-min Rain = 0
KBO1 161435Z 01024KT 05/05 A30 RMK A01 T00500050  RH  100%=      5-min Rain = 0
KBO1 161436Z 01021KT 05/05 A30 RMK A01 T00490049  RH  100%=      5-min Rain = 0
KBO1 161437Z 01022KT 05/05 A30 RMK A01 T00490049  RH  100%=      5-min Rain = 0
KBO1 161438Z 01020KT 05/05 A30 RMK A01 T00500050  RH  100%=      5-min Rain = 0
KBO1 161439Z 01021KT 05/05 A30 RMK A01 T00500050  RH  100%=      5-min Rain = 0
KBO1 161440Z 01023KT 05/05 A30 RMK A01 T00500050  RH  100%=      5-min Rain = 0
KBO1 161441Z 01021KT 05/05 A30 RMK A01 T00510051  RH  100%=      5-min Rain = 0
KBO1 161442Z 01020KT 05/05 A30 RMK A01 T00510051  RH  100%=      5-min Rain = 0
KBO1 161443Z 02021KT 05/05 A30 RMK A01 T00520052  RH  100%=      5-min Rain = 0
KBO1 161444Z 02021KT 05/05 A30 RMK A01 T00530053  RH  100%=      5-min Rain = 0
KBO1 161445Z 02020KT 05/05 A30 RMK A01 T00530051  RH  099%=      5-min Rain = 0
KBO1 161446Z 02022KT 05/05 A30 RMK A01 T00530049  RH  097%=      5-min Rain = 0
KBO1 161447Z 01023KT 05/05 A30 RMK A01 T00530048  RH  097%=      5-min Rain = 0
KBO1 161448Z 01019KT 05/05 A3001 RMK A01 T00530049  RH  097%=      5-min Rain = 0
KBO1 161449Z 01017KT 05/05 A3001 RMK A01 T00530052  RH  099%=      5-min Rain = 0
KBO1 161450Z 01019KT 05/05 A3001 RMK A01 T00540054  RH  100%=      5-min Rain = 0
KBO1 161451Z 00017KT 05/05 A3001 RMK A01 T00540054  RH  100%=      5-min Rain = 0
KBO1 161452Z 01014KT 05/05 A3001 RMK A01 T00540054  RH  100%=      5-min Rain = 0
KBO1 161453Z 01018KT 05/05 A3001 RMK A01 T00530053  RH  100%=      5-min Rain = 0
KBO1 161454Z 01020KT 05/05 A3001 RMK A01 T00520051  RH  100%=      5-min Rain = 0
KBO1 161455Z 00022KT 05/05 A3001 RMK A01 T00510047  RH  098%=      5-min Rain = 0
KBO1 161456Z 01019KT 05/05 A3001 RMK A01 T00500045  RH  097%=      5-min Rain = 0
KBO1 161457Z 36018KT 05/05 A3001 RMK A01 T00500046  RH  097%=      5-min Rain = 0
KBO1 161458Z 00021KT 05/05 A3001 RMK A01 T00500046  RH  097%=      5-min Rain = 0
KBO1 161459Z 00019KT 05/05 A3001 RMK A01 T00510046  RH  097%=      5-min Rain = 0
KBO1 161500Z 00018KT 05/05 A3001 RMK A01 T00510046  RH  096%=      5-min Rain = 0
KBO1 161501Z 35020KT 05/05 A3001 RMK A01 T00510045  RH  096%=      5-min Rain = 0
KBO1 161502Z 00019KT 05/04 A3001 RMK A01 T00520043  RH  094%=      5-min Rain = 0
KBO1 161503Z 01020KT 05/04 A3002 RMK A01 T00510043  RH  094%=      5-min Rain = 0
KBO1 161504Z 00019G24KT 05/04 A3002 RMK A01 T00520042  RH  093%=      5-min Rain = 0
KBO1 161505Z 00022KT 05/04 A3002 RMK A01 T00520040  RH  092%=      5-min Rain = 0
KBO1 161506Z 00020KT 05/04 A3002 RMK A01 T00520037  RH  090%=      5-min Rain = 0
KBO1 161507Z 01020KT 05/04 A3002 RMK A01 T00520040  RH  092%=      5-min Rain = 0
KBO1 161508Z 00022KT 05/04 A3002 RMK A01 T00520038  RH  091%=      5-min Rain = 0
KBO1 161509Z 00022KT 05/04 A3002 RMK A01 T00510035  RH  089%=      5-min Rain = 0
KBO1 161510Z 00020KT 05/04 A3002 RMK A01 T00510035  RH  089%=      5-min Rain = 0
KBO1 161511Z 36019KT 05/04 A3002 RMK A01 T00510037  RH  090%=      5-min Rain = 0
KBO1 161512Z 00020KT 05/04 A3002 RMK A01 T00520037  RH  090%=      5-min Rain = 0
KBO1 161513Z 00019KT 05/04 A3002 RMK A01 T00520037  RH  090%=      5-min Rain = 0
KBO1 161514Z 00022KT 05/03 A3002 RMK A01 T00530034  RH  088%=      5-min Rain = 0
KBO1 161515Z 00022KT 05/03 A3002 RMK A01 T00530034  RH  087%=      5-min Rain = 0
KBO1 161516Z 36021G27KT 05/03 A3002 RMK A01 T00530030  RH  085%=      5-min Rain = 0
KBO1 161517Z 00019KT 05/03 A3002 RMK A01 T00530033  RH  087%=      5-min Rain = 0
KBO1 161518Z 36020KT 05/03 A3002 RMK A01 T00530030  RH  085%=      5-min Rain = 0
KBO1 161519Z 36019KT 05/03 A3002 RMK A01 T00530029  RH  085%=      5-min Rain = 0
KBO1 161520Z 00020KT 05/03 A3002 RMK A01 T00530030  RH  085%=      5-min Rain = 0
KBO1 161521Z 00019KT 05/03 A3002 RMK A01 T00530029  RH  084%=      5-min Rain = 0
KBO1 161522Z 00017KT 05/03 A3002 RMK A01 T00530032  RH  087%=      5-min Rain = 0
KBO1 161523Z 00019KT 05/04 A3002 RMK A01 T00540035  RH  087%=      5-min Rain = 0
KBO1 161524Z 00018KT 06/04 A3002 RMK A01 T00550035  RH  086%=      5-min Rain = 0
KBO1 161525Z 35020KT 06/03 A3002 RMK A01 T00560034  RH  086%=      5-min Rain = 0
KBO1 161526Z 36021KT 06/03 A3002 RMK A01 T00550031  RH  084%=      5-min Rain = 0
KBO1 161527Z 35020KT 06/03 A3002 RMK A01 T00550031  RH  084%=      5-min Rain = 0
KBO1 161528Z 36018KT 06/03 A3002 RMK A01 T00550033  RH  086%=      5-min Rain = 0
KBO1 161529Z 00021KT 06/03 A3002 RMK A01 T00560033  RH  085%=      5-min Rain = 0
KBO1 161530Z 01021KT 06/03 A3002 RMK A01 T00570034  RH  085%=      5-min Rain = 0
KBO1 161531Z 00021KT 06/03 A3002 RMK A01 T00580032  RH  084%=      5-min Rain = 0
KBO1 161532Z 00023KT 06/03 A3002 RMK A01 T00570027  RH  081%=      5-min Rain = 0
KBO1 161533Z 00022KT 06/03 A3002 RMK A01 T00560028  RH  082%=      5-min Rain = 0
KBO1 161534Z 01019KT 06/03 A3002 RMK A01 T00570030  RH  083%=      5-min Rain = 0
KBO1 161535Z 36020KT 06/04 A3002 RMK A01 T00590035  RH  084%=      5-min Rain = 0
KBO1 161536Z 00020G25KT 06/03 A3002 RMK A01 T00600032  RH  082%=      5-min Rain = 0
KBO1 161537Z 00018KT 06/03 A3002 RMK A01 T00600033  RH  083%=      5-min Rain = 0
KBO1 161538Z 00021KT 06/03 A3002 RMK A01 T00610034  RH  083%=      5-min Rain = 0
KBO1 161539Z 36017KT 06/03 A3002 RMK A01 T00610034  RH  083%=      5-min Rain = 0
KBO1 161540Z 35018KT 06/03 A3002 RMK A01 T00610034  RH  083%=      5-min Rain = 0
KBO1 161541Z 36020KT 06/04 A3002 RMK A01 T00610036  RH  084%=      5-min Rain = 0
KBO1 161542Z 01019G24KT 06/04 A3002 RMK A01 T00620038  RH  085%=      5-min Rain = 0
KBO1 161543Z 00019G24KT 06/03 A3002 RMK A01 T00620033  RH  082%=      5-min Rain = 0
KBO1 161544Z 00018KT 06/03 A3002 RMK A01 T00620034  RH  082%=      5-min Rain = 0
KBO1 161545Z 00020KT 06/03 A3002 RMK A01 T00620034  RH  082%=      5-min Rain = 0
KBO1 161546Z 00022G27KT 06/03 A3002 RMK A01 T00630032  RH  080%=      5-min Rain = 0
KBO1 161547Z 01021G28KT 06/03 A3002 RMK A01 T00630031  RH  080%=      5-min Rain = 0
KBO1 161548Z 01023KT 07/03 A3003 RMK A01 T00650029  RH  078%=      5-min Rain = 0
KBO1 161549Z 01024KT 07/03 A3003 RMK A01 T00660025  RH  075%=      5-min Rain = 0
KBO1 161550Z 01021KT 07/02 A3002 RMK A01 T00650021  RH  073%=      5-min Rain = 0
KBO1 161551Z 36021KT 07/02 A3002 RMK A01 T00650020  RH  073%=      5-min Rain = 0
KBO1 161552Z 00021G26KT 07/02 A3002 RMK A01 T00680021  RH  072%=      5-min Rain = 0
KBO1 161553Z 01021KT 07/02 A3002 RMK A01 T00700021  RH  071%=      5-min Rain = 0
KBO1 161554Z 01020G25KT 07/03 A3002 RMK A01 T00720025  RH  072%=      5-min Rain = 0
KBO1 161555Z 01021KT 07/03 A3002 RMK A01 T00740026  RH  071%=      5-min Rain = 0
KBO1 161556Z 00018G23KT 08/03 A3002 RMK A01 T00770030  RH  072%=      5-min Rain = 0
KBO1 161557Z 00017KT 08/03 A3002 RMK A01 T00820034  RH  072%=      5-min Rain = 0
KBO1 161558Z 36021KT 09/03 A3002 RMK A01 T00850033  RH  070%=      5-min Rain = 0
KBO1 161559Z 00022KT 08/03 A3002 RMK A01 T00810026  RH  068%=      5-min Rain = 0
KBO1 161600Z 35020KT 08/03 A3002 RMK A01 T00770026  RH  070%=      5-min Rain = 0
KBO1 161601Z 36020KT 07/02 A3002 RMK A01 T00740023  RH  070%=      5-min Rain = 0
KBO1 161602Z 36020G25KT 07/02 A3002 RMK A01 T00690019  RH  070%=      5-min Rain = 0
KBO1 161603Z 35019G24KT 07/02 A3002 RMK A01 T00660018  RH  071%=      5-min Rain = 0
KBO1 161604Z 35022KT 07/02 A3002 RMK A01 T00650019  RH  072%=      5-min Rain = 0
KBO1 161605Z 36019KT 07/02 A3002 RMK A01 T00650020  RH  073%=      5-min Rain = 0
KBO1 161606Z 00018KT 07/03 A3002 RMK A01 T00720034  RH  077%=      5-min Rain = 0
KBO1 161607Z 01022G27KT 08/03 A3003 RMK A01 T00800030  RH  071%=      5-min Rain = 0
KBO1 161608Z 01022KT 08/02 A3003 RMK A01 T00790021  RH  067%=      5-min Rain = 0
KBO1 161609Z 01021G26KT 08/02 A3003 RMK A01 T00790020  RH  066%=      5-min Rain = 0
KBO1 161610Z 01024KT 08/02 A3003 RMK A01 T00800017  RH  065%=      5-min Rain = 0
KBO1 161611Z 36021KT 08/01 A3003 RMK A01 T00780012  RH  063%=      5-min Rain = 0
KBO1 161612Z 35022KT 08/01 A3003 RMK A01 T00770013  RH  064%=      5-min Rain = 0
KBO1 161613Z 35020KT 08/01 A3003 RMK A01 T00770013  RH  064%=      5-min Rain = 0
KBO1 161614Z 36020G25KT 08/02 A3003 RMK A01 T00760015  RH  065%=      5-min Rain = 0
KBO1 161615Z 36021KT 08/01 A3003 RMK A01 T00770014  RH  064%=      5-min Rain = 0
KBO1 161616Z 01019KT 08/01 A3003 RMK A01 T00760014  RH  065%=      5-min Rain = 0
KBO1 161617Z 01022KT 08/02 A3003 RMK A01 T00780016  RH  065%=      5-min Rain = 0
KBO1 161618Z 01020KT 08/02 A3003 RMK A01 T00810018  RH  064%=      5-min Rain = 0
KBO1 161619Z 01023KT 08/02 A3003 RMK A01 T00820015  RH  063%=      5-min Rain = 0
KBO1 161620Z 00019G25KT 08/02 A3003 RMK A01 T00810017  RH  064%=      5-min Rain = 0
KBO1 161621Z 36020G25KT 08/02 A3003 RMK A01 T00840019  RH  064%=      5-min Rain = 0
KBO1 161622Z 00023KT 09/02 A3003 RMK A01 T00860017  RH  062%=      5-min Rain = 0
KBO1 161623Z 35021G26KT 09/01 A3003 RMK A01 T00850014  RH  061%=      5-min Rain = 0
KBO1 161624Z 34019KT 08/01 A3003 RMK A01 T00840010  RH  060%=      5-min Rain = 0
KBO1 161625Z 34019KT 08/01 A3003 RMK A01 T00840013  RH  061%=      5-min Rain = 0
KBO1 161626Z 36019KT 09/02 A3003 RMK A01 T00850015  RH  061%=      5-min Rain = 0
KBO1 161627Z 01020G25KT 09/02 A3003 RMK A01 T00870015  RH  060%=      5-min Rain = 0
KBO1 161628Z 01022KT 09/01 A3003 RMK A01 T00860008  RH  058%=      5-min Rain = 0
KBO1 161629Z 36021KT 08/01 A3003 RMK A01 T00820007  RH  059%=      5-min Rain = 0
KBO1 161630Z 01020KT 08/01 A3003 RMK A01 T00820008  RH  060%=      5-min Rain = 0
KBO1 161631Z 00020G25KT 08/01 A3003 RMK A01 T00830010  RH  060%=      5-min Rain = 0
KBO1 161632Z 00022KT 09/01 A3003 RMK A01 T00850010  RH  059%=      5-min Rain = 0
KBO1 161633Z 36024KT 09/01 A3003 RMK A01 T00870012  RH  060%=      5-min Rain = 0
KBO1 161634Z 35022KT 08/01 A3003 RMK A01 T00840006  RH  058%=      5-min Rain = 0
KBO1 161635Z 36019G25KT 08/01 A3003 RMK A01 T00800011  RH  061%=      5-min Rain = 0
KBO1 161636Z 36024KT 08/01 A3003 RMK A01 T00820011  RH  061%=      5-min Rain = 0
KBO1 161637Z 36023KT 08/01 A3003 RMK A01 T00800007  RH  060%=      5-min Rain = 0
KBO1 161638Z 36021KT 08/01 A3003 RMK A01 T00780010  RH  062%=      5-min Rain = 0
KBO1 161639Z 36024G30KT 08/01 A3003 RMK A01 T00820013  RH  062%=      5-min Rain = 0
KBO1 161640Z 35019G25KT 08/01 A3003 RMK A01 T00830011  RH  060%=      5-min Rain = 0
KBO1 161641Z 00019KT 08/01 A3003 RMK A01 T00840014  RH  061%=      5-min Rain = 0
KBO1 161642Z 01022KT 09/01 A3004 RMK A01 T00860014  RH  060%=      5-min Rain = 0
KBO1 161643Z 35020G25KT 09/01 A3003 RMK A01 T00860013  RH  060%=      5-min Rain = 0
KBO1 161644Z 00021KT 09/01 A3003 RMK A01 T00860014  RH  061%=      5-min Rain = 0
KBO1 161645Z 01021KT 09/02 A3003 RMK A01 T00880015  RH  060%=      5-min Rain = 0
KBO1 161646Z 00024KT 09/01 A3003 RMK A01 T00900013  RH  058%=      5-min Rain = 0
KBO1 161647Z 01022KT 09/01 A3003 RMK A01 T00900011  RH  058%=      5-min Rain = 0
KBO1 161648Z 01024G29KT 09/01 A3004 RMK A01 T00890009  RH  057%=      5-min Rain = 0
KBO1 161649Z 00017KT 09/01 A3004 RMK A01 T00880007  RH  057%=      5-min Rain = 0
KBO1 161650Z 01018KT 09/01 A3003 RMK A01 T00880009  RH  058%=      5-min Rain = 0
KBO1 161651Z 35022KT 09/01 A3003 RMK A01 T00910010  RH  057%=      5-min Rain = 0
KBO1 161652Z 00020G25KT 09/01 A3003 RMK A01 T00920009  RH  056%=      5-min Rain = 0
KBO1 161653Z 01023G28KT 09/01 A3004 RMK A01 T00920005  RH  054%=      5-min Rain = 0
KBO1 161654Z 00024KT 09/00 A3003 RMK A01 T00890004  RH  055%=      5-min Rain = 0
KBO1 161655Z 00022KT 09/00 A3003 RMK A01 T00890004  RH  055%=      5-min Rain = 0
KBO1 161656Z 00024KT 09/00 A3004 RMK A01 T00910004  RH  054%=      5-min Rain = 0
KBO1 161657Z 36024KT 09/00 A3004 RMK A01 T00900000  RH  053%=      5-min Rain = 0
KBO1 161658Z 36021G26KT 09/00 A3004 RMK A01 T008900-0  RH  054%=      5-min Rain = 0
KBO1 161659Z 00021KT 09/00 A3004 RMK A01 T008800-0  RH  054%=      5-min Rain = 0
KBO1 161700Z 01022KT 09/00 A3004 RMK A01 T00890002  RH  054%=      5-min Rain = 0
KBO1 161701Z 01022KT 09/00 A3004 RMK A01 T00910002  RH  054%=      5-min Rain = 0
KBO1 161702Z 01023KT 09/00 A3004 RMK A01 T00920002  RH  054%=      5-min Rain = 0
KBO1 161703Z 02021KT 09/00 A3004 RMK A01 T00910001  RH  053%=      5-min Rain = 0
KBO1 161704Z 02021KT 09/00 A3004 RMK A01 T00900001  RH  054%=      5-min Rain = 0
KBO1 161705Z 35017KT 09/01 A3004 RMK A01 T00910006  RH  055%=      5-min Rain = 0
KBO1 161706Z 35024KT 09/00 A3004 RMK A01 T00940002  RH  053%=      5-min Rain = 0
KBO1 161707Z 36023KT 09/M00 A3004 RMK A01 T00881004  RH  052%=      5-min Rain = 0
KBO1 161708Z 35021KT 09/00 A3004 RMK A01 T008700-0  RH  054%=      5-min Rain = 0
KBO1 161709Z 00022G29KT 09/00 A3004 RMK A01 T00890001  RH  054%=      5-min Rain = 0
KBO1 161710Z 01021KT 09/00 A3004 RMK A01 T00930003  RH  053%=      5-min Rain = 0
KBO1 161711Z 01024KT 09/00 A3004 RMK A01 T00930003  RH  053%=      5-min Rain = 0
KBO1 161712Z 02022KT 09/00 A3004 RMK A01 T00930004  RH  054%=      5-min Rain = 0
KBO1 161713Z 02023KT 09/00 A3004 RMK A01 T00930004  RH  054%=      5-min Rain = 0
KBO1 161714Z 02020G25KT 09/01 A3004 RMK A01 T00930005  RH  054%=      5-min Rain = 0
KBO1 161715Z 35022G29KT 10/01 A3004 RMK A01 T00980009  RH  054%=      5-min Rain = 0
KBO1 161716Z 35019G26KT 10/00 A3004 RMK A01 T00990004  RH  052%=      5-min Rain = 0
KBO1 161717Z 35020G26KT 10/01 A3004 RMK A01 T01000005  RH  052%=      5-min Rain = 0
KBO1 161718Z 36023KT 10/00 A3004 RMK A01 T01000003  RH  051%=      5-min Rain = 0
KBO1 161719Z 36023G28KT 10/00 A3004 RMK A01 T00990001  RH  050%=      5-min Rain = 0
KBO1 161720Z 35020KT 10/M00 A3004 RMK A01 T00981001  RH  050%=      5-min Rain = 0
KBO1 161721Z 35020KT 10/M00 A3004 RMK A01 T00961002  RH  051%=      5-min Rain = 0
KBO1 161722Z 36022G27KT 09/M00 A3004 RMK A01 T00941003  RH  050%=      5-min Rain = 0
KBO1 161723Z 00026KT 09/M01 A3004 RMK A01 T00901005  RH  051%=      5-min Rain = 0
KBO1 161724Z 01023KT 09/M00 A3004 RMK A01 T00891002  RH  053%=      5-min Rain = 0
KBO1 161725Z 00020KT 09/00 A3004 RMK A01 T00930002  RH  053%=      5-min Rain = 0
KBO1 161726Z 35018KT 10/00 A3003 RMK A01 T00950003  RH  053%=      5-min Rain = 0
KBO1 161727Z 01024G29KT 10/00 A3004 RMK A01 T00970004  RH  052%=      5-min Rain = 0
KBO1 161728Z 36020KT 10/00 A3004 RMK A01 T009700-0  RH  051%=      5-min Rain = 0
KBO1 161729Z 01023KT 10/00 A3004 RMK A01 T00970003  RH  052%=      5-min Rain = 0
KBO1 161730Z 01023KT 10/00 A3004 RMK A01 T00970002  RH  052%=      5-min Rain = 0
KBO1 161731Z 01023G28KT 10/00 A3004 RMK A01 T00970000  RH  051%=      5-min Rain = 0
KBO1 161732Z 01023KT 10/00 A3004 RMK A01 T00970001  RH  051%=      5-min Rain = 0
KBO1 161733Z 00021KT 10/00 A3004 RMK A01 T00980002  RH  051%=      5-min Rain = 0
KBO1 161734Z 35023KT 10/01 A3004 RMK A01 T00990005  RH  052%=      5-min Rain = 0
KBO1 161735Z 36023KT 10/00 A3004 RMK A01 T01020003  RH  050%=      5-min Rain = 0
KBO1 161736Z 35019G24KT 10/M00 A3003 RMK A01 T00991001  RH  050%=      5-min Rain = 0
KBO1 161737Z 36019KT 10/00 A3004 RMK A01 T00990002  RH  051%=      5-min Rain = 0
KBO1 161738Z 36018G26KT 10/01 A3004 RMK A01 T01020007  RH  051%=      5-min Rain = 0
KBO1 161739Z 00020KT 11/00 A3004 RMK A01 T01050003  RH  049%=      5-min Rain = 0
KBO1 161740Z 01023G28KT 10/01 A3003 RMK A01 T01020006  RH  051%=      5-min Rain = 0
KBO1 161741Z 01027KT 10/01 A3004 RMK A01 T01040008  RH  051%=      5-min Rain = 0
KBO1 161742Z 01026KT 10/00 A3004 RMK A01 T01000000  RH  050%=      5-min Rain = 0
KBO1 161743Z 01021KT 09/M00 A3004 RMK A01 T00941003  RH  051%=      5-min Rain = 0
KBO1 161744Z 00020KT 09/00 A3003 RMK A01 T00930001  RH  053%=      5-min Rain = 0
KBO1 161745Z 00022KT 10/01 A3003 RMK A01 T00980006  RH  053%=      5-min Rain = 0
KBO1 161746Z 35024KT 10/01 A3003 RMK A01 T01010005  RH  051%=      5-min Rain = 0
KBO1 161747Z 35023KT 10/00 A3004 RMK A01 T01010001  RH  050%=      5-min Rain = 0
KBO1 161748Z 35020KT 10/M00 A3004 RMK A01 T00991001  RH  050%=      5-min Rain = 0
KBO1 161749Z 35019G26KT 10/00 A3003 RMK A01 T00980001  RH  051%=      5-min Rain = 0
KBO1 161750Z 01026KT 10/00 A3004 RMK A01 T01010004  RH  051%=      5-min Rain = 0
KBO1 161751Z 00021KT 10/00 A3004 RMK A01 T01010004  RH  051%=      5-min Rain = 0
KBO1 161752Z 00024KT 10/01 A3004 RMK A01 T01040008  RH  051%=      5-min Rain = 0
KBO1 161753Z 00025KT 10/01 A3004 RMK A01 T01040005  RH  050%=      5-min Rain = 0
KBO1 161754Z 01022KT 10/M00 A3004 RMK A01 T00961002  RH  050%=      5-min Rain = 0
KBO1 161755Z 01022KT 09/M00 A3004 RMK A01 T00901002  RH  052%=      5-min Rain = 0
KBO1 161756Z 36022KT 09/M00 A3004 RMK A01 T00891002  RH  053%=      5-min Rain = 0
KBO1 161757Z 35019KT 09/00 A3004 RMK A01 T00900001  RH  054%=      5-min Rain = 0
KBO1 161758Z 01020G25KT 10/01 A3004 RMK A01 T00970005  RH  053%=      5-min Rain = 0
KBO1 161759Z 00020KT 10/00 A3004 RMK A01 T01010003  RH  051%=      5-min Rain = 0
KBO1 161800Z 00018G25KT 10/00 A3004 RMK A01 T01020003  RH  050%=      5-min Rain = 0
KBO1 161801Z 01021KT 10/00 A3004 RMK A01 T01040003  RH  050%=      5-min Rain = 0
KBO1 161802Z 02020KT 10/00 A3004 RMK A01 T01030001  RH  049%=      5-min Rain = 0
KBO1 161803Z 00023KT 10/00 A3004 RMK A01 T01020000  RH  049%=      5-min Rain = 0
KBO1 161804Z 00019KT 10/00 A3004 RMK A01 T010100-0  RH  049%=      5-min Rain = 0
KBO1 161805Z 36024KT 10/M00 A3004 RMK A01 T01011002  RH  049%=      5-min Rain = 0
KBO1 161806Z 00022KT 10/M00 A3004 RMK A01 T01011004  RH  048%=      5-min Rain = 0
KBO1 161807Z 36020KT 10/M01 A3003 RMK A01 T01001005  RH  048%=      5-min Rain = 0
KBO1 161808Z 01019G26KT 10/M00 A3004 RMK A01 T01021002  RH  049%=      5-min Rain = 0
KBO1 161809Z 02021G26KT 10/M00 A3004 RMK A01 T01021003  RH  048%=      5-min Rain = 0
KBO1 161810Z 01020KT 10/M01 A3004 RMK A01 T01001005  RH  048%=      5-min Rain = 0
KBO1 161811Z 01023G28KT 10/M01 A3004 RMK A01 T00991005  RH  048%=      5-min Rain = 0
KBO1 161812Z 01022KT 10/M01 A3004 RMK A01 T00981008  RH  047%=      5-min Rain = 0
KBO1 161813Z 36020KT 10/M01 A3004 RMK A01 T00961009  RH  048%=      5-min Rain = 0
KBO1 161814Z 36019KT 10/M00 A3004 RMK A01 T00981002  RH  050%=      5-min Rain = 0
KBO1 161815Z 00018KT 10/00 A3004 RMK A01 T01010000  RH  050%=      5-min Rain = 0
KBO1 161816Z 36019G24KT 11/01 A3004 RMK A01 T01050005  RH  050%=      5-min Rain = 0
KBO1 161817Z 35021KT 11/M00 A3004 RMK A01 T01061001  RH  047%=      5-min Rain = 0
KBO1 161818Z 00022KT 10/M00 A3004 RMK A01 T01031004  RH  047%=      5-min Rain = 0
KBO1 161819Z 00021G26KT 10/M01 A3004 RMK A01 T00991006  RH  048%=      5-min Rain = 0
KBO1 161820Z 35019G24KT 10/M00 A3004 RMK A01 T00981003  RH  049%=      5-min Rain = 0
KBO1 161821Z 01022G27KT 10/M00 A3004 RMK A01 T01001001  RH  049%=      5-min Rain = 0
KBO1 161822Z 02023KT 10/M01 A3004 RMK A01 T00981005  RH  049%=      5-min Rain = 0
KBO1 161823Z 02020G25KT 09/M01 A3004 RMK A01 T00921008  RH  050%=      5-min Rain = 0
KBO1 161824Z 02021KT 09/M01 A3004 RMK A01 T00901005  RH  051%=      5-min Rain = 0
KBO1 161825Z 01018KT 09/M00 A3004 RMK A01 T00941002  RH  051%=      5-min Rain = 0
KBO1 161826Z 36023G29KT 10/00 A3004 RMK A01 T01020002  RH  050%=      5-min Rain = 0
KBO1 161827Z 00022KT 10/M01 A3004 RMK A01 T01041007  RH  046%=      5-min Rain = 0
KBO1 161828Z 00020KT 10/M01 A3004 RMK A01 T01021012  RH  045%=      5-min Rain = 0
KBO1 161829Z 36018KT 10/M02 A3004 RMK A01 T01021015  RH  044%=      5-min Rain = 0
KBO1 161830Z 00019G24KT 10/M01 A3004 RMK A01 T01031012  RH  045%=      5-min Rain = 0
KBO1 161831Z 36024KT 10/M01 A3004 RMK A01 T01041006  RH  046%=      5-min Rain = 0
KBO1 161832Z 36021KT 10/M01 A3004 RMK A01 T01041009  RH  046%=      5-min Rain = 0
KBO1 161833Z 01019G27KT 10/M01 A3004 RMK A01 T01001009  RH  047%=      5-min Rain = 0
KBO1 161834Z 00024KT 10/M01 A3004 RMK A01 T01031007  RH  046%=      5-min Rain = 0
KBO1 161835Z 00022KT 10/M01 A3004 RMK A01 T00991013  RH  045%=      5-min Rain = 0
KBO1 161836Z 36020KT 10/M01 A3003 RMK A01 T00961012  RH  047%=      5-min Rain = 0
KBO1 161837Z 35015KT 10/M01 A3003 RMK A01 T00971012  RH  047%=      5-min Rain = 0
KBO1 161838Z 01020KT 10/M01 A3003 RMK A01 T01001006  RH  048%=      5-min Rain = 0
KBO1 161839Z 02018KT 11/M00 A3003 RMK A01 T01081001  RH  047%=      5-min Rain = 0
KBO1 161840Z 01021KT 11/M01 A3003 RMK A01 T01121005  RH  045%=      5-min Rain = 0
KBO1 161841Z 01023KT 11/M01 A3004 RMK A01 T01121005  RH  044%=      5-min Rain = 0
KBO1 161842Z 00024KT 11/M01 A3003 RMK A01 T01121007  RH  044%=      5-min Rain = 0
KBO1 161843Z 36020KT 11/M01 A3004 RMK A01 T01091009  RH  044%=      5-min Rain = 0
KBO1 161844Z 00020KT 11/M01 A3004 RMK A01 T01071008  RH  045%=      5-min Rain = 0
KBO1 161845Z 36017KT 11/M01 A3004 RMK A01 T01101006  RH  045%=      5-min Rain = 0
KBO1 161846Z 35019KT 11/M00 A3004 RMK A01 T01131002  RH  045%=      5-min Rain = 0
KBO1 161847Z 00017KT 11/M00 A3003 RMK A01 T01141004  RH  044%=      5-min Rain = 0
KBO1 161848Z 02016KT 11/M00 A3003 RMK A01 T01141004  RH  044%=      5-min Rain = 0
KBO1 161849Z 02021KT 11/M00 A3003 RMK A01 T01141004  RH  044%=      5-min Rain = 0
KBO1 161850Z 02019KT 11/M00 A3003 RMK A01 T01141004  RH  044%=      5-min Rain = 0
KBO1 161851Z 35023G32KT 12/M00 A3003 RMK A01 T01151004  RH  044%=      5-min Rain = 0
KBO1 161852Z 35020KT 11/M01 A3003 RMK A01 T01121009  RH  043%=      5-min Rain = 0
KBO1 161853Z 35020G25KT 11/M00 A3003 RMK A01 T01111004  RH  045%=      5-min Rain = 0
KBO1 161854Z 35018KT 11/M00 A3004 RMK A01 T01141004  RH  044%=      5-min Rain = 0
KBO1 161855Z 35023G28KT 11/M00 A3003 RMK A01 T01121004  RH  044%=      5-min Rain = 0
KBO1 161856Z 01023KT 11/M01 A3004 RMK A01 T01121005  RH  045%=      5-min Rain = 0
KBO1 161857Z 00021KT 11/M01 A3004 RMK A01 T01051010  RH  045%=      5-min Rain = 0
KBO1 161858Z 00020KT 10/M01 A3004 RMK A01 T01011012  RH  045%=      5-min Rain = 0
KBO1 161859Z 01018KT 10/M01 A3004 RMK A01 T00971012  RH  046%=      5-min Rain = 0
KBO1 161900Z 00019KT 10/M01 A3004 RMK A01 T00971009  RH  047%=      5-min Rain = 0
KBO1 161901Z 00020KT 10/M01 A3004 RMK A01 T01001007  RH  047%=      5-min Rain = 0
KBO1 161902Z 02017G23KT 10/M01 A3004 RMK A01 T01041005  RH  047%=      5-min Rain = 0
KBO1 161903Z 02022KT 11/M01 A3004 RMK A01 T01081005  RH  046%=      5-min Rain = 0
KBO1 161904Z 35022KT 11/M01 A3004 RMK A01 T01091006  RH  045%=      5-min Rain = 0
KBO1 161905Z 35020KT 11/M01 A3004 RMK A01 T01121008  RH  043%=      5-min Rain = 0
KBO1 161906Z 35020KT 11/M01 A3004 RMK A01 T01071013  RH  043%=      5-min Rain = 0
KBO1 161907Z 35019KT 11/M01 A3004 RMK A01 T01071008  RH  045%=      5-min Rain = 0
KBO1 161908Z 35021G27KT 11/M01 A3004 RMK A01 T01121005  RH  044%=      5-min Rain = 0
KBO1 161909Z 01022KT 11/M01 A3004 RMK A01 T01131006  RH  044%=      5-min Rain = 0
KBO1 161910Z 36023KT 11/M01 A3004 RMK A01 T01121009  RH  043%=      5-min Rain = 0
KBO1 161911Z 00021KT 11/M01 A3004 RMK A01 T01091010  RH  043%=      5-min Rain = 0
KBO1 161912Z 00019KT 11/M01 A3004 RMK A01 T01081010  RH  044%=      5-min Rain = 0
KBO1 161913Z 00018G23KT 11/M01 A3004 RMK A01 T01071010  RH  044%=      5-min Rain = 0
KBO1 161914Z 00017KT 11/M01 A3004 RMK A01 T01081010  RH  044%=      5-min Rain = 0
KBO1 161915Z 00016KT 11/M01 A3004 RMK A01 T01091008  RH  045%=      5-min Rain = 0
KBO1 161916Z 36023KT 12/M00 A3004 RMK A01 T01151001  RH  045%=      5-min Rain = 0
KBO1 161917Z 00024KT 12/M01 A3004 RMK A01 T01181008  RH  042%=      5-min Rain = 0
KBO1 161918Z 00020KT 11/M01 A3004 RMK A01 T01111011  RH  043%=      5-min Rain = 0
KBO1 161919Z 00020G25KT 11/M01 A3004 RMK A01 T01131006  RH  044%=      5-min Rain = 0
KBO1 161920Z 01015KT 11/M01 A3004 RMK A01 T01141009  RH  043%=      5-min Rain = 0
KBO1 161921Z 01020G25KT 12/M01 A3004 RMK A01 T01171005  RH  043%=      5-min Rain = 0
KBO1 161922Z 36019KT 11/M01 A3004 RMK A01 T01141010  RH  042%=      5-min Rain = 0
KBO1 161923Z 35023KT 11/M01 A3004 RMK A01 T01121009  RH  043%=      5-min Rain = 0
KBO1 161924Z 35020G25KT 11/M01 A3004 RMK A01 T01111009  RH  043%=      5-min Rain = 0
KBO1 161925Z 00023KT 12/M01 A3004 RMK A01 T01151005  RH  044%=      5-min Rain = 0
KBO1 161926Z 35023KT 12/M01 A3004 RMK A01 T01161008  RH  042%=      5-min Rain = 0
KBO1 161927Z 35021KT 12/M01 A3004 RMK A01 T01151009  RH  042%=      5-min Rain = 0
KBO1 161928Z 35019KT 12/M01 A3004 RMK A01 T01171007  RH  042%=      5-min Rain = 0
KBO1 161929Z 36020KT 12/M01 A3004 RMK A01 T01171010  RH  041%=      5-min Rain = 0
KBO1 161930Z 02020KT 12/M01 A3004 RMK A01 T01161010  RH  041%=      5-min Rain = 0
KBO1 161931Z 02017KT 11/M01 A3004 RMK A01 T01141012  RH  042%=      5-min Rain = 0
KBO1 161932Z 00020KT 11/M01 A3004 RMK A01 T01141009  RH  042%=      5-min Rain = 0
KBO1 161933Z 01020KT 12/M01 A3004 RMK A01 T01151012  RH  041%=      5-min Rain = 0
KBO1 161934Z 01020G25KT 11/M01 A3004 RMK A01 T01121012  RH  042%=      5-min Rain = 0
KBO1 161935Z 00022KT 12/M01 A3004 RMK A01 T01151011  RH  042%=      5-min Rain = 0
KBO1 161936Z 00021KT 12/M01 A3004 RMK A01 T01161010  RH  042%=      5-min Rain = 0
KBO1 161937Z 36019G25KT 12/M01 A3004 RMK A01 T01151012  RH  041%=      5-min Rain = 0
KBO1 161938Z 00021KT 11/M01 A3004 RMK A01 T01141011  RH  042%=      5-min Rain = 0
KBO1 161939Z 35020G26KT 11/M01 A3004 RMK A01 T01131013  RH  042%=      5-min Rain = 0
KBO1 161940Z 36020KT 11/M01 A3004 RMK A01 T01121012  RH  042%=      5-min Rain = 0
KBO1 161941Z 36020KT 12/M01 A3004 RMK A01 T01151010  RH  042%=      5-min Rain = 0
KBO1 161942Z 00022KT 12/M01 A3004 RMK A01 T01171010  RH  042%=      5-min Rain = 0
KBO1 161943Z 35020KT 12/M01 A3004 RMK A01 T01171011  RH  041%=      5-min Rain = 0
KBO1 161944Z 36022G27KT 12/M01 A3004 RMK A01 T01151012  RH  041%=      5-min Rain = 0
KBO1 161945Z 01019KT 11/M01 A3004 RMK A01 T01131012  RH  042%=      5-min Rain = 0
KBO1 161946Z 00021KT 12/M01 A3004 RMK A01 T01151008  RH  042%=      5-min Rain = 0
KBO1 161947Z 35019KT 12/M01 A3004 RMK A01 T01181008  RH  042%=      5-min Rain = 0
KBO1 161948Z 36020KT 12/M01 A3004 RMK A01 T01181011  RH  041%=      5-min Rain = 0
KBO1 161949Z 00018KT 12/M01 A3004 RMK A01 T01161014  RH  040%=      5-min Rain = 0
KBO1 161950Z 02024G29KT 12/M01 A3004 RMK A01 T01151012  RH  041%=      5-min Rain = 0
KBO1 161951Z 01023KT 11/M02 A3004 RMK A01 T01101017  RH  041%=      5-min Rain = 0
KBO1 161952Z 01023G28KT 11/M02 A3004 RMK A01 T01051017  RH  042%=      5-min Rain = 0
KBO1 161953Z 02023KT 10/M02 A3004 RMK A01 T00991020  RH  043%=      5-min Rain = 0
KBO1 161954Z 01022G28KT 10/M02 A3004 RMK A01 T00961019  RH  045%=      5-min Rain = 0
KBO1 161955Z 01019KT 09/M02 A3004 RMK A01 T00941018  RH  045%=      5-min Rain = 0
KBO1 161956Z 02017KT 10/M01 A3004 RMK A01 T00971012  RH  047%=      5-min Rain = 0
KBO1 161957Z 36017G22KT 11/M01 A3004 RMK A01 T01061006  RH  046%=      5-min Rain = 0
KBO1 161958Z 00025G31KT 11/M01 A3004 RMK A01 T01131006  RH  044%=      5-min Rain = 0
KBO1 161959Z 00022KT 11/M01 A3004 RMK A01 T01121012  RH  042%=      5-min Rain = 0
KBO1 162000Z 35022KT 11/M01 A3004 RMK A01 T01091011  RH  043%=      5-min Rain = 0
KBO1 162001Z 36021G26KT 11/M01 A3004 RMK A01 T01111009  RH  043%=      5-min Rain = 0
KBO1 162002Z 02019G24KT 12/M01 A3004 RMK A01 T01161008  RH  042%=      5-min Rain = 0
KBO1 162003Z 02021KT 11/M01 A3004 RMK A01 T01141012  RH  042%=      5-min Rain = 0
KBO1 162004Z 01025G30KT 11/M01 A3004 RMK A01 T01131012  RH  042%=      5-min Rain = 0
KBO1 162005Z 01025KT 11/M01 A3004 RMK A01 T01121012  RH  042%=      5-min Rain = 0
KBO1 162006Z 01021KT 11/M01 A3004 RMK A01 T01131013  RH  041%=      5-min Rain = 0
KBO1 162007Z 02019G24KT 12/M01 A3004 RMK A01 T01151009  RH  042%=      5-min Rain = 0
KBO1 162008Z 01023G29KT 12/M01 A3004 RMK A01 T01171011  RH  041%=      5-min Rain = 0
KBO1 162009Z 36026KT 12/M01 A3004 RMK A01 T01151014  RH  041%=      5-min Rain = 0
KBO1 162010Z 00021KT 11/M02 A3004 RMK A01 T01051020  RH  041%=      5-min Rain = 0
KBO1 162011Z 00015KT 10/M02 A3004 RMK A01 T01011018  RH  043%=      5-min Rain = 0
KBO1 162012Z 02016KT 11/M01 A3004 RMK A01 T01061010  RH  045%=      5-min Rain = 0
KBO1 162013Z 01020KT 11/M01 A3004 RMK A01 T01131010  RH  043%=      5-min Rain = 0
KBO1 162014Z 01018G23KT 11/M02 A3004 RMK A01 T01081016  RH  042%=      5-min Rain = 0
KBO1 162015Z 01024KT 10/M02 A3004 RMK A01 T01031017  RH  043%=      5-min Rain = 0
KBO1 162016Z 02023KT 10/M02 A3004 RMK A01 T00991016  RH  045%=      5-min Rain = 0
KBO1 162017Z 02020G25KT 10/M01 A3004 RMK A01 T01031010  RH  045%=      5-min Rain = 0
KBO1 162018Z 01021KT 11/M01 A3004 RMK A01 T01091010  RH  044%=      5-min Rain = 0
KBO1 162019Z 01019G25KT 11/M01 A3004 RMK A01 T01101013  RH  043%=      5-min Rain = 0
KBO1 162020Z 02023KT 11/M01 A3004 RMK A01 T01131010  RH  042%=      5-min Rain = 0
KBO1 162021Z 03019G25KT 11/M02 A3004 RMK A01 T01091019  RH  041%=      5-min Rain = 0
KBO1 162022Z 02022KT 11/M02 A3004 RMK A01 T01061015  RH  043%=      5-min Rain = 0
KBO1 162023Z 02021KT 11/M02 A3004 RMK A01 T01081016  RH  042%=      5-min Rain = 0
KBO1 162024Z 36021KT 11/M02 A3004 RMK A01 T01101015  RH  042%=      5-min Rain = 0
KBO1 162025Z 00018G24KT 11/M02 A3004 RMK A01 T01081017  RH  041%=      5-min Rain = 0
KBO1 162026Z 01020G25KT 11/M01 A3005 RMK A01 T01101014  RH  042%=      5-min Rain = 0
KBO1 162027Z 35023KT 11/M02 A3004 RMK A01 T01111016  RH  041%=      5-min Rain = 0
KBO1 162028Z 35021KT 11/M02 A3004 RMK A01 T01131017  RH  040%=      5-min Rain = 0
KBO1 162029Z 35019G24KT 11/M02 A3004 RMK A01 T01101021  RH  040%=      5-min Rain = 0
KBO1 162030Z 00024G29KT 11/M02 A3005 RMK A01 T01091016  RH  042%=      5-min Rain = 0
KBO1 162031Z 01020KT 11/M02 A3005 RMK A01 T01131016  RH  041%=      5-min Rain = 0
KBO1 162032Z 36021KT 11/M02 A3004 RMK A01 T01121017  RH  041%=      5-min Rain = 0
KBO1 162033Z 01021G26KT 11/M02 A3004 RMK A01 T01101017  RH  041%=      5-min Rain = 0
KBO1 162034Z 36022G27KT 11/M01 A3005 RMK A01 T01131013  RH  042%=      5-min Rain = 0
KBO1 162035Z 00022KT 12/M01 A3005 RMK A01 T01161013  RH  041%=      5-min Rain = 0
KBO1 162036Z 01019G24KT 12/M01 A3005 RMK A01 T01161013  RH  041%=      5-min Rain = 0
KBO1 162037Z 36021G27KT 12/M01 A3005 RMK A01 T01171012  RH  041%=      5-min Rain = 0
KBO1 162038Z 01025G30KT 12/M01 A3005 RMK A01 T01181011  RH  041%=      5-min Rain = 0
KBO1 162039Z 36021KT 12/M01 A3005 RMK A01 T01161014  RH  040%=      5-min Rain = 0
KBO1 162040Z 01020KT 11/M02 A3005 RMK A01 T01111016  RH  041%=      5-min Rain = 0
KBO1 162041Z 36018KT 11/M02 A3005 RMK A01 T01081015  RH  042%=      5-min Rain = 0
KBO1 162042Z 36019G26KT 11/M02 A3005 RMK A01 T01071015  RH  042%=      5-min Rain = 0
KBO1 162043Z 01020G26KT 11/M01 A3005 RMK A01 T01111011  RH  043%=      5-min Rain = 0
KBO1 162044Z 01026KT 11/M01 A3005 RMK A01 T01121014  RH  041%=      5-min Rain = 0
KBO1 162045Z 01026KT 11/M02 A3005 RMK A01 T01111017  RH  041%=      5-min Rain = 0
KBO1 162046Z 01021KT 11/M02 A3005 RMK A01 T01061022  RH  041%=      5-min Rain = 0
KBO1 162047Z 01021G27KT 10/M02 A3005 RMK A01 T01011021  RH  042%=      5-min Rain = 0
KBO1 162048Z 01021KT 10/M02 A3005 RMK A01 T01021020  RH  042%=      5-min Rain = 0
KBO1 162049Z 02020G25KT 10/M02 A3005 RMK A01 T01021020  RH  042%=      5-min Rain = 0
KBO1 162050Z 01021KT 10/M02 A3005 RMK A01 T01041019  RH  042%=      5-min Rain = 0
KBO1 162051Z 01021KT 11/M02 A3005 RMK A01 T01051019  RH  042%=      5-min Rain = 0
KBO1 162052Z 00021KT 11/M02 A3005 RMK A01 T01061017  RH  042%=      5-min Rain = 0
KBO1 162053Z 35016KT 11/M02 A3005 RMK A01 T01091019  RH  041%=      5-min Rain = 0
KBO1 162054Z 00014G19KT 11/M02 A3005 RMK A01 T01071019  RH  041%=      5-min Rain = 0
KBO1 162055Z 00019KT 11/M01 A3005 RMK A01 T01121013  RH  042%=      5-min Rain = 0
KBO1 162056Z 01021KT 12/M01 A3005 RMK A01 T01191014  RH  040%=      5-min Rain = 0
KBO1 162057Z 01021KT 12/M02 A3005 RMK A01 T01161019  RH  039%=      5-min Rain = 0
KBO1 162058Z 01021KT 11/M02 A3005 RMK A01 T01101022  RH  039%=      5-min Rain = 0
KBO1 162059Z 36020KT 11/M02 A3005 RMK A01 T01071022  RH  040%=      5-min Rain = 0
KBO1 162100Z 00020KT 10/M03 A3005 RMK A01 T01011025  RH  041%=      5-min Rain = 0
KBO1 162101Z 00019G25KT 11/M02 A3005 RMK A01 T01051018  RH  042%=      5-min Rain = 0
KBO1 162102Z 35013KT 11/M02 A3005 RMK A01 T01071021  RH  041%=      5-min Rain = 0
KBO1 162103Z 01015KT 11/M02 A3005 RMK A01 T01071019  RH  041%=      5-min Rain = 0
KBO1 162104Z 36019KT 11/M02 A3005 RMK A01 T01111016  RH  041%=      5-min Rain = 0
KBO1 162105Z 01016KT 11/M02 A3005 RMK A01 T01121017  RH  040%=      5-min Rain = 0
KBO1 162106Z 01017KT 11/M02 A3005 RMK A01 T01141018  RH  040%=      5-min Rain = 0
KBO1 162107Z 01020G25KT 11/M02 A3005 RMK A01 T01141018  RH  040%=      5-min Rain = 0
KBO1 162108Z 02021KT 11/M02 A3005 RMK A01 T01131020  RH  039%=      5-min Rain = 0
KBO1 162109Z 02023KT 11/M02 A3005 RMK A01 T01131019  RH  040%=      5-min Rain = 0
KBO1 162110Z 02018KT 11/M02 A3005 RMK A01 T01101022  RH  039%=      5-min Rain = 0
KBO1 162111Z 02019KT 11/M02 A3005 RMK A01 T01101019  RH  041%=      5-min Rain = 0
KBO1 162112Z 02019KT 11/M02 A3005 RMK A01 T01121019  RH  040%=      5-min Rain = 0
KBO1 162113Z 00021KT 11/M02 A3005 RMK A01 T01131021  RH  039%=      5-min Rain = 0
KBO1 162114Z 35017KT 11/M02 A3005 RMK A01 T01131020  RH  039%=      5-min Rain = 0
KBO1 162115Z 35018KT 12/M02 A3005 RMK A01 T01151021  RH  039%=      5-min Rain = 0
KBO1 162116Z 35019KT 11/M03 A3005 RMK A01 T01111027  RH  038%=      5-min Rain = 0
KBO1 162117Z 00016KT 10/M03 A3005 RMK A01 T01011031  RH  040%=      5-min Rain = 0
KBO1 162118Z 01016KT 10/M03 A3005 RMK A01 T00961027  RH  042%=      5-min Rain = 0
KBO1 162119Z 02020KT 10/M02 A3005 RMK A01 T00991020  RH  043%=      5-min Rain = 0
KBO1 162120Z 01021G26KT 10/M02 A3005 RMK A01 T01041021  RH  042%=      5-min Rain = 0
KBO1 162121Z 00019G26KT 11/M02 A3005 RMK A01 T01071019  RH  041%=      5-min Rain = 0
KBO1 162122Z 35023KT 11/M02 A3005 RMK A01 T01081021  RH  040%=      5-min Rain = 0
KBO1 162123Z 36022KT 10/M03 A3005 RMK A01 T01041025  RH  040%=      5-min Rain = 0
KBO1 162124Z 02020KT 10/M02 A3006 RMK A01 T01021024  RH  041%=      5-min Rain = 0
KBO1 162125Z 02016KT 10/M02 A3005 RMK A01 T01001024  RH  042%=      5-min Rain = 0
KBO1 162126Z 01021KT 10/M02 A3006 RMK A01 T01001022  RH  042%=      5-min Rain = 0
KBO1 162127Z 02018KT 10/M02 A3005 RMK A01 T01001023  RH  042%=      5-min Rain = 0
KBO1 162128Z 02019KT 10/M02 A3005 RMK A01 T01011024  RH  042%=      5-min Rain = 0
KBO1 162129Z 36017G22KT 10/M02 A3005 RMK A01 T01001024  RH  042%=      5-min Rain = 0
KBO1 162130Z 35016KT 10/M03 A3005 RMK A01 T01011025  RH  041%=      5-min Rain = 0
KBO1 162131Z 35017KT 10/M03 A3005 RMK A01 T00991026  RH  041%=      5-min Rain = 0
KBO1 162132Z 00021G26KT 10/M02 A3005 RMK A01 T01011021  RH  043%=      5-min Rain = 0
KBO1 162133Z 35024KT 11/M02 A3005 RMK A01 T01071020  RH  041%=      5-min Rain = 0
KBO1 162134Z 36019G24KT 11/M02 A3005 RMK A01 T01081022  RH  040%=      5-min Rain = 0
KBO1 162135Z 35019G25KT 11/M02 A3005 RMK A01 T01061023  RH  040%=      5-min Rain = 0
KBO1 162136Z 36018KT 10/M03 A3005 RMK A01 T01031025  RH  041%=      5-min Rain = 0
KBO1 162137Z 00014KT 10/M03 A3005 RMK A01 T00991026  RH  042%=      5-min Rain = 0
KBO1 162138Z 02017G22KT 10/M03 A3005 RMK A01 T00991025  RH  042%=      5-min Rain = 0
KBO1 162139Z 01020G25KT 10/M02 A3005 RMK A01 T00981024  RH  042%=      5-min Rain = 0
KBO1 162140Z 01018KT 10/M02 A3005 RMK A01 T01001023  RH  042%=      5-min Rain = 0
KBO1 162141Z 02019G24KT 10/M03 A3005 RMK A01 T00981026  RH  042%=      5-min Rain = 0
KBO1 162142Z 01022KT 10/M03 A3005 RMK A01 T00961025  RH  042%=      5-min Rain = 0
KBO1 162143Z 01021KT 10/M02 A3005 RMK A01 T00991023  RH  042%=      5-min Rain = 0
KBO1 162144Z 36021KT 10/M02 A3004 RMK A01 T01041021  RH  042%=      5-min Rain = 0
KBO1 162145Z 01020G25KT 11/M02 A3004 RMK A01 T01071021  RH  041%=      5-min Rain = 0
KBO1 162146Z 35018KT 11/M02 A3004 RMK A01 T01101020  RH  040%=      5-min Rain = 0
KBO1 162147Z 00020KT 11/M02 A3005 RMK A01 T01091022  RH  040%=      5-min Rain = 0
KBO1 162148Z 01024KT 11/M02 A3005 RMK A01 T01071024  RH  040%=      5-min Rain = 0
KBO1 162149Z 00024KT 11/M02 A3005 RMK A01 T01081021  RH  040%=      5-min Rain = 0
KBO1 162150Z 00022KT 11/M02 A3005 RMK A01 T01081024  RH  039%=      5-min Rain = 0
KBO1 162151Z 00021KT 10/M03 A3005 RMK A01 T01041027  RH  040%=      5-min Rain = 0
KBO1 162152Z 02022KT 10/M03 A3005 RMK A01 T01011027  RH  041%=      5-min Rain = 0
KBO1 162153Z 01020KT 10/M03 A3005 RMK A01 T00991027  RH  041%=      5-min Rain = 0
KBO1 162154Z 01023KT 10/M03 A3005 RMK A01 T00981026  RH  042%=      5-min Rain = 0
KBO1 162155Z 02021KT 10/M03 A3005 RMK A01 T00981025  RH  042%=      5-min Rain = 0
KBO1 162156Z 01020KT 10/M03 A3005 RMK A01 T00991025  RH  042%=      5-min Rain = 0
KBO1 162157Z 01021KT 10/M03 A3005 RMK A01 T01001025  RH  042%=      5-min Rain = 0
KBO1 162158Z 02019KT 10/M03 A3005 RMK A01 T00991026  RH  042%=      5-min Rain = 0
KBO1 162159Z 02018KT 10/M03 A3005 RMK A01 T01001025  RH  042%=      5-min Rain = 0
KBO1 162200Z 02022KT 10/M02 A3005 RMK A01 T01041023  RH  041%=      5-min Rain = 0
KBO1 162201Z 02022G27KT 11/M03 A3005 RMK A01 T01051026  RH  040%=      5-min Rain = 0
KBO1 162202Z 02021KT 11/M03 A3005 RMK A01 T01061026  RH  039%=      5-min Rain = 0
KBO1 162203Z 02019KT 11/M03 A3005 RMK A01 T01061029  RH  039%=      5-min Rain = 0
KBO1 162204Z 01019KT 10/M03 A3005 RMK A01 T01021031  RH  039%=      5-min Rain = 0
KBO1 162205Z 01022G27KT 10/M03 A3005 RMK A01 T01011029  RH  040%=      5-min Rain = 0
KBO1 162206Z 01022KT 10/M03 A3005 RMK A01 T01011029  RH  040%=      5-min Rain = 0
KBO1 162207Z 01021G26KT 10/M03 A3005 RMK A01 T01011029  RH  040%=      5-min Rain = 0
KBO1 162208Z 01017KT 10/M03 A3005 RMK A01 T01011028  RH  040%=      5-min Rain = 0
KBO1 162209Z 01021G28KT 10/M03 A3005 RMK A01 T01011027  RH  040%=      5-min Rain = 0
KBO1 162210Z 02023KT 10/M03 A3005 RMK A01 T01041026  RH  040%=      5-min Rain = 0
KBO1 162211Z 01022G28KT 11/M03 A3005 RMK A01 T01051026  RH  040%=      5-min Rain = 0
KBO1 162212Z 02021KT 10/M03 A3005 RMK A01 T00991030  RH  040%=      5-min Rain = 0
KBO1 162213Z 01019KT 10/M03 A3005 RMK A01 T00951028  RH  042%=      5-min Rain = 0
KBO1 162214Z 02019KT 10/M02 A3005 RMK A01 T00981024  RH  042%=      5-min Rain = 0
KBO1 162215Z 02021KT 10/M03 A3005 RMK A01 T01001025  RH  041%=      5-min Rain = 0
KBO1 162216Z 02022G29KT 10/M03 A3005 RMK A01 T01011025  RH  041%=      5-min Rain = 0
KBO1 162217Z 02025KT 11/M02 A3005 RMK A01 T01051022  RH  041%=      5-min Rain = 0
KBO1 162218Z 01023G28KT 11/M02 A3005 RMK A01 T01051023  RH  041%=      5-min Rain = 0
KBO1 162219Z 03022KT 10/M03 A3005 RMK A01 T01021025  RH  041%=      5-min Rain = 0
KBO1 162220Z 03022KT 10/M03 A3005 RMK A01 T01001025  RH  041%=      5-min Rain = 0
KBO1 162221Z 02019G27KT 10/M02 A3005 RMK A01 T01001023  RH  042%=      5-min Rain = 0
KBO1 162222Z 02021KT 11/M02 A3005 RMK A01 T01051020  RH  042%=      5-min Rain = 0
KBO1 162223Z 02023KT 10/M02 A3005 RMK A01 T01041024  RH  041%=      5-min Rain = 0
KBO1 162224Z 03023KT 10/M02 A3005 RMK A01 T01031024  RH  041%=      5-min Rain = 0
KBO1 162225Z 02023KT 10/M02 A3005 RMK A01 T01021024  RH  041%=      5-min Rain = 0
KBO1 162226Z 02021KT 10/M03 A3005 RMK A01 T01011025  RH  041%=      5-min Rain = 0
KBO1 162227Z 03019KT 10/M02 A3005 RMK A01 T01001024  RH  042%=      5-min Rain = 0
KBO1 162228Z 02021KT 10/M02 A3005 RMK A01 T01011023  RH  042%=      5-min Rain = 0
KBO1 162229Z 02024KT 10/M02 A3005 RMK A01 T01021024  RH  041%=      5-min Rain = 0
KBO1 162230Z 01021KT 10/M03 A3005 RMK A01 T00991026  RH  041%=      5-min Rain = 0
KBO1 162231Z 01020KT 10/M03 A3005 RMK A01 T00961031  RH  041%=      5-min Rain = 0
KBO1 162232Z 00022KT 09/M03 A3005 RMK A01 T00941031  RH  041%=      5-min Rain = 0
KBO1 162233Z 36021KT 09/M03 A3005 RMK A01 T00931032  RH  041%=      5-min Rain = 0
KBO1 162234Z 01019KT 09/M03 A3005 RMK A01 T00921031  RH  042%=      5-min Rain = 0
KBO1 162235Z 01020KT 09/M03 A3005 RMK A01 T00931029  RH  042%=      5-min Rain = 0
KBO1 162236Z 01024KT 10/M03 A3005 RMK A01 T00951026  RH  043%=      5-min Rain = 0
KBO1 162237Z 01021KT 10/M02 A3005 RMK A01 T00981023  RH  043%=      5-min Rain = 0
KBO1 162238Z 01023KT 10/M02 A3005 RMK A01 T01001023  RH  042%=      5-min Rain = 0
KBO1 162239Z 01023KT 10/M02 A3005 RMK A01 T01001024  RH  042%=      5-min Rain = 0
KBO1 162240Z 01022KT 10/M02 A3005 RMK A01 T00991024  RH  042%=      5-min Rain = 0
KBO1 162241Z 02025KT 10/M02 A3005 RMK A01 T01001024  RH  042%=      5-min Rain = 0
KBO1 162242Z 02024KT 10/M03 A3006 RMK A01 T00981026  RH  042%=      5-min Rain = 0
KBO1 162243Z 02022G27KT 10/M03 A3006 RMK A01 T00971025  RH  042%=      5-min Rain = 0
KBO1 162244Z 03020KT 10/M02 A3006 RMK A01 T00991024  RH  042%=      5-min Rain = 0
KBO1 162245Z 01023KT 10/M02 A3006 RMK A01 T00991024  RH  042%=      5-min Rain = 0
KBO1 162246Z 02024G29KT 10/M02 A3006 RMK A01 T00981024  RH  042%=      5-min Rain = 0
KBO1 162247Z 03023KT 09/M03 A3006 RMK A01 T00931027  RH  043%=      5-min Rain = 0
KBO1 162248Z 04022KT 09/M03 A3006 RMK A01 T00891027  RH  044%=      5-min Rain = 0
KBO1 162249Z 03020KT 09/M03 A3006 RMK A01 T00871027  RH  045%=      5-min Rain = 0
KBO1 162250Z 02019G24KT 09/M02 A3006 RMK A01 T00911022  RH  045%=      5-min Rain = 0
KBO1 162251Z 03022G28KT 10/M02 A3006 RMK A01 T00971021  RH  043%=      5-min Rain = 0
KBO1 162252Z 03022KT 10/M02 A3006 RMK A01 T00981023  RH  043%=      5-min Rain = 0
KBO1 162253Z 03023KT 10/M02 A3006 RMK A01 T00991022  RH  042%=      5-min Rain = 0
KBO1 162254Z 03024G29KT 10/M02 A3006 RMK A01 T00981024  RH  042%=      5-min Rain = 0
KBO1 162255Z 02023KT 10/M02 A3006 RMK A01 T00951024  RH  043%=      5-min Rain = 0
KBO1 162256Z 02022KT 10/M02 A3006 RMK A01 T00971023  RH  043%=      5-min Rain = 0
KBO1 162257Z 03020G25KT 10/M02 A3006 RMK A01 T00981023  RH  043%=      5-min Rain = 0
KBO1 162258Z 03022KT 10/M02 A3006 RMK A01 T00981024  RH  043%=      5-min Rain = 0
KBO1 162259Z 03023KT 10/M02 A3006 RMK A01 T00991023  RH  042%=      5-min Rain = 0
KBO1 162300Z 03022KT 10/M03 A3006 RMK A01 T00981025  RH  042%=      5-min Rain = 0
KBO1 162301Z 03022G27KT 10/M03 A3007 RMK A01 T00971025  RH  042%=      5-min Rain = 0
KBO1 162302Z 02019KT 10/M03 A3007 RMK A01 T00951027  RH  042%=      5-min Rain = 0
KBO1 162303Z 01022KT 10/M02 A3007 RMK A01 T00961024  RH  043%=      5-min Rain = 0
KBO1 162304Z 01024KT 10/M03 A3007 RMK A01 T00971026  RH  042%=      5-min Rain = 0
KBO1 162305Z 01022KT 09/M03 A3007 RMK A01 T00941028  RH  042%=      5-min Rain = 0
KBO1 162306Z 02022G27KT 09/M03 A3007 RMK A01 T00931027  RH  043%=      5-min Rain = 0
KBO1 162307Z 02024KT 09/M03 A3007 RMK A01 T00901028  RH  043%=      5-min Rain = 0
KBO1 162308Z 02020G25KT 09/M03 A3007 RMK A01 T00861029  RH  044%=      5-min Rain = 0
KBO1 162309Z 02022KT 08/M03 A3007 RMK A01 T00831028  RH  045%=      5-min Rain = 0
KBO1 162310Z 01021KT 08/M03 A3007 RMK A01 T00831027  RH  046%=      5-min Rain = 0
KBO1 162311Z 01022KT 08/M03 A3007 RMK A01 T00811028  RH  046%=      5-min Rain = 0
KBO1 162312Z 02021KT 08/M03 A3007 RMK A01 T00811026  RH  047%=      5-min Rain = 0
KBO1 162313Z 02021KT 08/M03 A3007 RMK A01 T00841025  RH  046%=      5-min Rain = 0
KBO1 162314Z 02023KT 09/M03 A3007 RMK A01 T00861026  RH  045%=      5-min Rain = 0
KBO1 162315Z 02021KT 09/M03 A3007 RMK A01 T00871027  RH  045%=      5-min Rain = 0
KBO1 162316Z 02022KT 09/M03 A3007 RMK A01 T00871027  RH  045%=      5-min Rain = 0
KBO1 162317Z 03022KT 09/M03 A3007 RMK A01 T00891025  RH  044%=      5-min Rain = 0
KBO1 162318Z 02024KT 09/M03 A3007 RMK A01 T00901027  RH  044%=      5-min Rain = 0
KBO1 162319Z 01024KT 09/M03 A3006 RMK A01 T00881029  RH  044%=      5-min Rain = 0
KBO1 162320Z 02021KT 09/M03 A3007 RMK A01 T00861028  RH  045%=      5-min Rain = 0
KBO1 162321Z 02025KT 09/M03 A3007 RMK A01 T00861027  RH  045%=      5-min Rain = 0
KBO1 162322Z 02024KT 09/M03 A3007 RMK A01 T00851028  RH  045%=      5-min Rain = 0
KBO1 162323Z 02021KT 08/M03 A3007 RMK A01 T00831030  RH  045%=      5-min Rain = 0
KBO1 162324Z 01022G27KT 08/M03 A3007 RMK A01 T00831028  RH  045%=      5-min Rain = 0
KBO1 162325Z 02022KT 09/M03 A3007 RMK A01 T00851029  RH  045%=      5-min Rain = 0
KBO1 162326Z 01021KT 08/M03 A3007 RMK A01 T00841030  RH  044%=      5-min Rain = 0
KBO1 162327Z 01021KT 09/M03 A3007 RMK A01 T00851029  RH  044%=      5-min Rain = 0
KBO1 162328Z 02022KT 08/M03 A3007 RMK A01 T00841031  RH  044%=      5-min Rain = 0
KBO1 162329Z 02018G26KT 08/M03 A3007 RMK A01 T00821030  RH  045%=      5-min Rain = 0
KBO1 162330Z 02022KT 08/M03 A3007 RMK A01 T00821029  RH  046%=      5-min Rain = 0
KBO1 162331Z 02023KT 08/M03 A3007 RMK A01 T00801030  RH  046%=      5-min Rain = 0
KBO1 162332Z 02022KT 08/M03 A3007 RMK A01 T00781030  RH  046%=      5-min Rain = 0
KBO1 162333Z 03023KT 08/M03 A3007 RMK A01 T00771028  RH  047%=      5-min Rain = 0
KBO1 162334Z 02024KT 08/M03 A3007 RMK A01 T00761029  RH  047%=      5-min Rain = 0
KBO1 162335Z 02021KT 08/M03 A3007 RMK A01 T00751029  RH  048%=      5-min Rain = 0
KBO1 162336Z 03023KT 08/M03 A3007 RMK A01 T00751029  RH  048%=      5-min Rain = 0
KBO1 162337Z 03021KT 07/M03 A3007 RMK A01 T00741030  RH  048%=      5-min Rain = 0
KBO1 162338Z 03022KT 07/M03 A3007 RMK A01 T00741029  RH  048%=      5-min Rain = 0
KBO1 162339Z 03022G27KT 07/M03 A3007 RMK A01 T00741031  RH  047%=      5-min Rain = 0
KBO1 162340Z 03023KT 07/M03 A3007 RMK A01 T00741031  RH  047%=      5-min Rain = 0
KBO1 162341Z 03025KT 08/M03 A3007 RMK A01 T00751031  RH  047%=      5-min Rain = 0
KBO1 162342Z 03024KT 08/M03 A3007 RMK A01 T00771032  RH  046%=      5-min Rain = 0
KBO1 162343Z 03023KT 08/M03 A3007 RMK A01 T00791033  RH  045%=      5-min Rain = 0
KBO1 162344Z 02021KT 08/M03 A3007 RMK A01 T00791033  RH  045%=      5-min Rain = 0
KBO1 162345Z 02020G26KT 08/M03 A3007 RMK A01 T00811031  RH  045%=      5-min Rain = 0
KBO1 162346Z 02024G30KT 08/M03 A3007 RMK A01 T00831030  RH  045%=      5-min Rain = 0
KBO1 162347Z 03023G29KT 08/M03 A3008 RMK A01 T00821030  RH  045%=      5-min Rain = 0
KBO1 162348Z 02024G29KT 08/M03 A3008 RMK A01 T00811031  RH  045%=      5-min Rain = 0
KBO1 162349Z 02022KT 08/M03 A3008 RMK A01 T00801032  RH  045%=      5-min Rain = 0
KBO1 162350Z 02019KT 08/M03 A3007 RMK A01 T00801032  RH  045%=      5-min Rain = 0
KBO1 162351Z 02020G26KT 08/M03 A3007 RMK A01 T00811030  RH  046%=      5-min Rain = 0
KBO1 162352Z 03022KT 08/M03 A3008 RMK A01 T00811028  RH  046%=      5-min Rain = 0
KBO1 162353Z 03023KT 08/M03 A3008 RMK A01 T00811029  RH  046%=      5-min Rain = 0
KBO1 162354Z 02022KT 08/M03 A3008 RMK A01 T00791031  RH  046%=      5-min Rain = 0
KBO1 162355Z 02019KT 08/M03 A3008 RMK A01 T00781031  RH  046%=      5-min Rain = 0
KBO1 162356Z 03018KT 08/M03 A3008 RMK A01 T00781031  RH  046%=      5-min Rain = 0
KBO1 162357Z 03020KT 08/M03 A3008 RMK A01 T00781031  RH  046%=      5-min Rain = 0
KBO1 162358Z 02018KT 08/M03 A3008 RMK A01 T00771032  RH  046%=      5-min Rain = 0
KBO1 162359Z 02014KT 08/M03 A3008 RMK A01 T00761031  RH  046%=      5-min Rain = 0
KBO1 170000Z 02019KT 08/M03 A3008 RMK A01 T00771030  RH  046%=      5-min Rain = 0
KBO1 170001Z 02020KT 08/M03 A3009 RMK A01 T00781031  RH  046%=      5-min Rain = 0
KBO1 170002Z 01020KT 08/M03 A3009 RMK A01 T00781032  RH  046%=      5-min Rain = 0
KBO1 170003Z 01020KT 08/M03 A3009 RMK A01 T00771032  RH  046%=      5-min Rain = 0
KBO1 170004Z 02020KT 08/M03 A3009 RMK A01 T00771033  RH  045%=      5-min Rain = 0
KBO1 170005Z 02022KT 08/M03 A3009 RMK A01 T00771034  RH  045%=      5-min Rain = 0
KBO1 170006Z 02018KT 08/M03 A3009 RMK A01 T00771034  RH  045%=      5-min Rain = 0
KBO1 170007Z 02020KT 08/M03 A3009 RMK A01 T00781034  RH  045%=      5-min Rain = 0
KBO1 170008Z 02018KT 08/M03 A3009 RMK A01 T00781034  RH  045%=      5-min Rain = 0
KBO1 170009Z 02021KT 08/M03 A3009 RMK A01 T00791034  RH  045%=      5-min Rain = 0
KBO1 170010Z 02021KT 08/M03 A3009 RMK A01 T00781034  RH  045%=      5-min Rain = 0
KBO1 170011Z 01021KT 08/M03 A3009 RMK A01 T00761034  RH  045%=      5-min Rain = 0
KBO1 170012Z 02018KT 08/M03 A3009 RMK A01 T00761034  RH  046%=      5-min Rain = 0
KBO1 170013Z 03019KT 08/M03 A3009 RMK A01 T00751032  RH  046%=      5-min Rain = 0
KBO1 170014Z 02018KT 08/M03 A3009 RMK A01 T00751032  RH  047%=      5-min Rain = 0
KBO1 170015Z 02020KT 08/M03 A3009 RMK A01 T00751032  RH  047%=      5-min Rain = 0
KBO1 170016Z 02018KT 08/M03 A3009 RMK A01 T00751031  RH  047%=      5-min Rain = 0
KBO1 170017Z 02020KT 08/M03 A3009 RMK A01 T00751030  RH  047%=      5-min Rain = 0
KBO1 170018Z 03019KT 07/M03 A3009 RMK A01 T00731032  RH  047%=      5-min Rain = 0
KBO1 170019Z 02022KT 07/M03 A3009 RMK A01 T00721032  RH  048%=      5-min Rain = 0
KBO1 170020Z 02018KT 07/M03 A3009 RMK A01 T00701032  RH  048%=      5-min Rain = 0
KBO1 170021Z 01017G23KT 07/M03 A3009 RMK A01 T00701031  RH  049%=      5-min Rain = 0
KBO1 170022Z 02016G21KT 07/M03 A3009 RMK A01 T00711031  RH  049%=      5-min Rain = 0
KBO1 170023Z 02017KT 07/M03 A3009 RMK A01 T00711031  RH  048%=      5-min Rain = 0
KBO1 170024Z 02019KT 07/M03 A3009 RMK A01 T00701031  RH  048%=      5-min Rain = 0
KBO1 170025Z 02019KT 07/M03 A3009 RMK A01 T00691032  RH  048%=      5-min Rain = 0
KBO1 170026Z 02020KT 07/M03 A3009 RMK A01 T00681032  RH  049%=      5-min Rain = 0
KBO1 170027Z 02021KT 07/M03 A3009 RMK A01 T00671032  RH  049%=      5-min Rain = 0
KBO1 170028Z 02020KT 07/M03 A3009 RMK A01 T00661032  RH  049%=      5-min Rain = 0
KBO1 170029Z 03018KT 07/M03 A3009 RMK A01 T00671031  RH  050%=      5-min Rain = 0
KBO1 170030Z 03022KT 07/M03 A3009 RMK A01 T00681030  RH  050%=      5-min Rain = 0
KBO1 170031Z 03022KT 07/M03 A3009 RMK A01 T00661031  RH  050%=      5-min Rain = 0
KBO1 170032Z 02019KT 07/M03 A3009 RMK A01 T00651031  RH  050%=      5-min Rain = 0
KBO1 170033Z 03022KT 07/M03 A301 RMK A01 T00651030  RH  051%=      5-min Rain = 0
KBO1 170034Z 02021KT 06/M03 A301 RMK A01 T00641030  RH  051%=      5-min Rain = 0
KBO1 170035Z 02019KT 06/M03 A301 RMK A01 T00641030  RH  051%=      5-min Rain = 0
KBO1 170036Z 02018KT 07/M03 A301 RMK A01 T00651030  RH  051%=      5-min Rain = 0
KBO1 170037Z 02019KT 07/M03 A301 RMK A01 T00671029  RH  050%=      5-min Rain = 0
KBO1 170038Z 03018KT 07/M03 A301 RMK A01 T00671029  RH  050%=      5-min Rain = 0
KBO1 170039Z 03020KT 07/M03 A301 RMK A01 T00671030  RH  050%=      5-min Rain = 0
KBO1 170040Z 03021KT 07/M03 A301 RMK A01 T00671030  RH  050%=      5-min Rain = 0
KBO1 170041Z 03020KT 07/M03 A301 RMK A01 T00651031  RH  050%=      5-min Rain = 0
KBO1 170042Z 03018KT 07/M03 A301 RMK A01 T00651031  RH  050%=      5-min Rain = 0
KBO1 170043Z 03017KT 07/M03 A301 RMK A01 T00651031  RH  051%=      5-min Rain = 0
KBO1 170044Z 04019KT 07/M03 A301 RMK A01 T00651030  RH  051%=      5-min Rain = 0
KBO1 170045Z 04019KT 07/M03 A301 RMK A01 T00651030  RH  051%=      5-min Rain = 0
KBO1 170046Z 02018KT 07/M03 A301 RMK A01 T00651030  RH  051%=      5-min Rain = 0
KBO1 170047Z 02018KT 07/M03 A301 RMK A01 T00661030  RH  051%=      5-min Rain = 0
KBO1 170048Z 02018KT 07/M03 A301 RMK A01 T00661030  RH  050%=      5-min Rain = 0
KBO1 170049Z 02016KT 07/M03 A301 RMK A01 T00651030  RH  050%=      5-min Rain = 0
KBO1 170050Z 02013KT 07/M03 A301 RMK A01 T00651030  RH  051%=      5-min Rain = 0
KBO1 170051Z 03013KT 07/M03 A3011 RMK A01 T00651030  RH  051%=      5-min Rain = 0
KBO1 170052Z 03018KT 07/M03 A3011 RMK A01 T00661029  RH  051%=      5-min Rain = 0
KBO1 170053Z 03018KT 07/M03 A3011 RMK A01 T00651031  RH  051%=      5-min Rain = 0
KBO1 170054Z 02017KT 06/M03 A3011 RMK A01 T00631031  RH  051%=      5-min Rain = 0
KBO1 170055Z 02015KT 06/M03 A3011 RMK A01 T00621031  RH  051%=      5-min Rain = 0
KBO1 170056Z 03017KT 06/M03 A3011 RMK A01 T00621030  RH  052%=      5-min Rain = 0
KBO1 170057Z 03016KT 06/M03 A3011 RMK A01 T00611031  RH  052%=      5-min Rain = 0
KBO1 170058Z 03014KT 06/M03 A3011 RMK A01 T00611030  RH  052%=      5-min Rain = 0
KBO1 170059Z 03015KT 06/M03 A3011 RMK A01 T00611030  RH  052%=      5-min Rain = 0
KBO1 170100Z 03016KT 06/M03 A3011 RMK A01 T00611030  RH  052%=      5-min Rain = 0
KBO1 170101Z 02015KT 06/M03 A3011 RMK A01 T00601030  RH  052%=      5-min Rain = 0
KBO1 170102Z 02015KT 06/M03 A3011 RMK A01 T00601030  RH  052%=      5-min Rain = 0
KBO1 170103Z 03013KT 06/M03 A3011 RMK A01 T00611029  RH  053%=      5-min Rain = 0
KBO1 170104Z 03016G21KT 06/M03 A3011 RMK A01 T00611028  RH  053%=      5-min Rain = 0
KBO1 170105Z 03016KT 06/M03 A3011 RMK A01 T00611029  RH  053%=      5-min Rain = 0
KBO1 170106Z 03017KT 06/M03 A3011 RMK A01 T00611028  RH  053%=      5-min Rain = 0
KBO1 170107Z 03017KT 06/M03 A3012 RMK A01 T00611029  RH  053%=      5-min Rain = 0
KBO1 170108Z 03016G21KT 06/M03 A3012 RMK A01 T00611029  RH  053%=      5-min Rain = 0
KBO1 170109Z 03017KT 06/M03 A3012 RMK A01 T00601029  RH  053%=      5-min Rain = 0
KBO1 170110Z 03017KT 06/M03 A3012 RMK A01 T00591030  RH  053%=      5-min Rain = 0
KBO1 170111Z 03015KT 06/M03 A3012 RMK A01 T00591030  RH  053%=      5-min Rain = 0
KBO1 170112Z 03016KT 06/M03 A3012 RMK A01 T00581029  RH  053%=      5-min Rain = 0
KBO1 170113Z 03017KT 06/M03 A3012 RMK A01 T00581029  RH  054%=      5-min Rain = 0
KBO1 170114Z 03016KT 06/M03 A3012 RMK A01 T00581029  RH  054%=      5-min Rain = 0
KBO1 170115Z 03017KT 06/M03 A3012 RMK A01 T00571028  RH  054%=      5-min Rain = 0
KBO1 170116Z 03015KT 06/M03 A3012 RMK A01 T00571028  RH  054%=      5-min Rain = 0
KBO1 170117Z 02016KT 06/M03 A3012 RMK A01 T00571028  RH  054%=      5-min Rain = 0
KBO1 170118Z 02019KT 06/M03 A3012 RMK A01 T00571028  RH  054%=      5-min Rain = 0
KBO1 170119Z 02018KT 06/M03 A3012 RMK A01 T00571029  RH  054%=      5-min Rain = 0
KBO1 170120Z 02018KT 06/M03 A3012 RMK A01 T00571029  RH  054%=      5-min Rain = 0
KBO1 170121Z 02017KT 06/M03 A3012 RMK A01 T00561029  RH  054%=      5-min Rain = 0
KBO1 170122Z 02017KT 06/M03 A3012 RMK A01 T00561028  RH  055%=      5-min Rain = 0
KBO1 170123Z 02017KT 06/M03 A3012 RMK A01 T00551028  RH  055%=      5-min Rain = 0
KBO1 170124Z 02014KT 06/M03 A3012 RMK A01 T00551028  RH  055%=      5-min Rain = 0
KBO1 170125Z 03016KT 05/M03 A3012 RMK A01 T00541028  RH  056%=      5-min Rain = 0
KBO1 170126Z 03017KT 05/M03 A3012 RMK A01 T00541027  RH  056%=      5-min Rain = 0
KBO1 170127Z 03017KT 05/M03 A3012 RMK A01 T00541026  RH  056%=      5-min Rain = 0
KBO1 170128Z 03017KT 05/M03 A3012 RMK A01 T00541027  RH  056%=      5-min Rain = 0
KBO1 170129Z 03018KT 05/M03 A3012 RMK A01 T00531027  RH  056%=      5-min Rain = 0
KBO1 170130Z 03017KT 05/M03 A3012 RMK A01 T00531027  RH  056%=      5-min Rain = 0
KBO1 170131Z 03017G22KT 05/M03 A3012 RMK A01 T00531028  RH  056%=      5-min Rain = 0
KBO1 170132Z 03018KT 05/M03 A3012 RMK A01 T00531028  RH  056%=      5-min Rain = 0
KBO1 170133Z 02018KT 05/M03 A3012 RMK A01 T00531028  RH  056%=      5-min Rain = 0
KBO1 170134Z 03020KT 05/M03 A3013 RMK A01 T00531029  RH  056%=      5-min Rain = 0
KBO1 170135Z 02018KT 05/M03 A3013 RMK A01 T00531029  RH  055%=      5-min Rain = 0
KBO1 170136Z 02016KT 05/M03 A3013 RMK A01 T00531029  RH  055%=      5-min Rain = 0
KBO1 170137Z 02018KT 05/M03 A3013 RMK A01 T00521030  RH  056%=      5-min Rain = 0
KBO1 170138Z 02017KT 05/M03 A3013 RMK A01 T00521029  RH  056%=      5-min Rain = 0
KBO1 170139Z 02016KT 05/M03 A3013 RMK A01 T00521030  RH  056%=      5-min Rain = 0
KBO1 170140Z 02018KT 05/M03 A3013 RMK A01 T00521030  RH  056%=      5-min Rain = 0
KBO1 170141Z 02018KT 05/M03 A3013 RMK A01 T00511030  RH  055%=      5-min Rain = 0
KBO1 170142Z 02019KT 05/M03 A3013 RMK A01 T00521030  RH  055%=      5-min Rain = 0
KBO1 170143Z 02017KT 05/M03 A3013 RMK A01 T00521030  RH  056%=      5-min Rain = 0
KBO1 170144Z 03016KT 05/M03 A3013 RMK A01 T00511031  RH  056%=      5-min Rain = 0
KBO1 170145Z 03014KT 05/M03 A3013 RMK A01 T00501030  RH  056%=      5-min Rain = 0
KBO1 170146Z 02018KT 05/M03 A3014 RMK A01 T00491030  RH  056%=      5-min Rain = 0
KBO1 170147Z 03019KT 05/M03 A3014 RMK A01 T00481030  RH  057%=      5-min Rain = 0
KBO1 170148Z 02016KT 05/M03 A3014 RMK A01 T00481031  RH  056%=      5-min Rain = 0
KBO1 170149Z 02016KT 05/M03 A3014 RMK A01 T00481031  RH  057%=      5-min Rain = 0
KBO1 170150Z 03018KT 05/M03 A3014 RMK A01 T00481031  RH  057%=      5-min Rain = 0
KBO1 170151Z 03014KT 05/M03 A3014 RMK A01 T00471031  RH  057%=      5-min Rain = 0
KBO1 170152Z 03018G24KT 05/M03 A3014 RMK A01 T00471031  RH  057%=      5-min Rain = 0
KBO1 170153Z 03019KT 05/M03 A3014 RMK A01 T00471031  RH  057%=      5-min Rain = 0
KBO1 170154Z 03019KT 05/M03 A3014 RMK A01 T00471031  RH  057%=      5-min Rain = 0
KBO1 170155Z 02018KT 05/M03 A3014 RMK A01 T00471031  RH  057%=      5-min Rain = 0
KBO1 170156Z 02017KT 05/M03 A3014 RMK A01 T00471031  RH  057%=      5-min Rain = 0
KBO1 170157Z 03017KT 05/M03 A3014 RMK A01 T00471031  RH  057%=      5-min Rain = 0
KBO1 170158Z 02015KT 05/M03 A3014 RMK A01 T00471031  RH  057%=      5-min Rain = 0
KBO1 170159Z 02015KT 05/M03 A3014 RMK A01 T00461032  RH  057%=      5-min Rain = 0
KBO1 170200Z 03014KT 05/M03 A3014 RMK A01 T00461032  RH  057%=      5-min Rain = 0
KBO1 170201Z 02016KT 05/M03 A3014 RMK A01 T00451032  RH  057%=      5-min Rain = 0
KBO1 170202Z 03016KT 05/M03 A3014 RMK A01 T00451031  RH  057%=      5-min Rain = 0
KBO1 170203Z 03018KT 05/M03 A3014 RMK A01 T00451032  RH  057%=      5-min Rain = 0
KBO1 170204Z 03016KT 05/M03 A3014 RMK A01 T00451033  RH  057%=      5-min Rain = 0
KBO1 170205Z 02016KT 05/M03 A3014 RMK A01 T00451033  RH  057%=      5-min Rain = 0
KBO1 170206Z 02017KT 05/M03 A3014 RMK A01 T00451033  RH  057%=      5-min Rain = 0
KBO1 170207Z 02016KT 05/M03 A3014 RMK A01 T00451033  RH  057%=      5-min Rain = 0
KBO1 170208Z 02018KT 05/M03 A3014 RMK A01 T00451032  RH  057%=      5-min Rain = 0
KBO1 170209Z 02017KT 05/M03 A3014 RMK A01 T00451033  RH  057%=      5-min Rain = 0
KBO1 170210Z 02015KT 05/M03 A3014 RMK A01 T00451033  RH  057%=      5-min Rain = 0
KBO1 170211Z 02016KT 05/M03 A3014 RMK A01 T00451033  RH  057%=      5-min Rain = 0
KBO1 170212Z 02016KT 05/M03 A3014 RMK A01 T00451033  RH  057%=      5-min Rain = 0
KBO1 170213Z 02015KT 05/M03 A3014 RMK A01 T00451033  RH  057%=      5-min Rain = 0
KBO1 170214Z 02017KT 05/M03 A3014 RMK A01 T00451033  RH  057%=      5-min Rain = 0
KBO1 170215Z 02016G22KT 05/M03 A3014 RMK A01 T00451033  RH  057%=      5-min Rain = 0
KBO1 170216Z 01017KT 04/M03 A3015 RMK A01 T00441033  RH  057%=      5-min Rain = 0
KBO1 170217Z 01019KT 04/M03 A3015 RMK A01 T00441034  RH  057%=      5-min Rain = 0
KBO1 170218Z 01017KT 04/M03 A3015 RMK A01 T00441034  RH  057%=      5-min Rain = 0
KBO1 170219Z 01016KT 04/M03 A3015 RMK A01 T00441034  RH  057%=      5-min Rain = 0
KBO1 170220Z 01016KT 04/M03 A3015 RMK A01 T00441034  RH  057%=      5-min Rain = 0
KBO1 170221Z 02016KT 04/M03 A3015 RMK A01 T00441033  RH  057%=      5-min Rain = 0
KBO1 170222Z 01016KT 04/M03 A3015 RMK A01 T00431034  RH  057%=      5-min Rain = 0
KBO1 170223Z 02013KT 04/M03 A3015 RMK A01 T00441033  RH  057%=      5-min Rain = 0
KBO1 170224Z 02015KT 04/M03 A3015 RMK A01 T00431033  RH  057%=      5-min Rain = 0
KBO1 170225Z 02014KT 04/M03 A3016 RMK A01 T00431033  RH  058%=      5-min Rain = 0
KBO1 170226Z 02013KT 04/M03 A3016 RMK A01 T00431033  RH  058%=      5-min Rain = 0
KBO1 170227Z 02012KT 04/M03 A3016 RMK A01 T00431033  RH  058%=      5-min Rain = 0
KBO1 170228Z 02012KT 04/M03 A3016 RMK A01 T00421033  RH  058%=      5-min Rain = 0
KBO1 170229Z 02012KT 04/M03 A3016 RMK A01 T00421033  RH  058%=      5-min Rain = 0
KBO1 170230Z 02011KT 04/M03 A3016 RMK A01 T00411033  RH  058%=      5-min Rain = 0
KBO1 170231Z 02012KT 04/M03 A3016 RMK A01 T00411033  RH  059%=      5-min Rain = 0
KBO1 170232Z 02011KT 04/M03 A3016 RMK A01 T00401033  RH  059%=      5-min Rain = 0
KBO1 170233Z 02010KT 04/M03 A3016 RMK A01 T00401033  RH  059%=      5-min Rain = 0
KBO1 170234Z 02011KT 04/M03 A3016 RMK A01 T00391033  RH  059%=      5-min Rain = 0
KBO1 170235Z 02010KT 04/M03 A3016 RMK A01 T00391033  RH  059%=      5-min Rain = 0
KBO1 170236Z 02012KT 04/M03 A3016 RMK A01 T00391033  RH  060%=      5-min Rain = 0
KBO1 170237Z 02012KT 04/M03 A3016 RMK A01 T00391032  RH  060%=      5-min Rain = 0
KBO1 170238Z 02010KT 04/M03 A3017 RMK A01 T00391032  RH  060%=      5-min Rain = 0
KBO1 170239Z 02011KT 04/M03 A3017 RMK A01 T00381032  RH  060%=      5-min Rain = 0
KBO1 170240Z 02010KT 04/M03 A3017 RMK A01 T00381032  RH  060%=      5-min Rain = 0
KBO1 170241Z 02012KT 04/M03 A3017 RMK A01 T00381032  RH  060%=      5-min Rain = 0
KBO1 170242Z 02012KT 04/M03 A3017 RMK A01 T00371032  RH  060%=      5-min Rain = 0
KBO1 170243Z 02012KT 04/M03 A3017 RMK A01 T00371032  RH  060%=      5-min Rain = 0
KBO1 170244Z 02012KT 04/M03 A3017 RMK A01 T00371032  RH  060%=      5-min Rain = 0
KBO1 170245Z 02013KT 04/M03 A3017 RMK A01 T00371032  RH  060%=      5-min Rain = 0
KBO1 170246Z 02010KT 04/M03 A3017 RMK A01 T00371032  RH  060%=      5-min Rain = 0
KBO1 170247Z 02011KT 04/M03 A3017 RMK A01 T00371032  RH  061%=      5-min Rain = 0
KBO1 170248Z 02011KT 04/M03 A3017 RMK A01 T00371032  RH  061%=      5-min Rain = 0
KBO1 170249Z 02010KT 04/M03 A3017 RMK A01 T00371032  RH  061%=      5-min Rain = 0
KBO1 170250Z 02012KT 04/M03 A3017 RMK A01 T00371032  RH  061%=      5-min Rain = 0
KBO1 170251Z 02010KT 04/M03 A3018 RMK A01 T00361032  RH  061%=      5-min Rain = 0
KBO1 170252Z 02011KT 04/M03 A3018 RMK A01 T00371032  RH  061%=      5-min Rain = 0
KBO1 170253Z 02011KT 04/M03 A3018 RMK A01 T00361032  RH  061%=      5-min Rain = 0
KBO1 170254Z 02011KT 04/M03 A3018 RMK A01 T00361032  RH  061%=      5-min Rain = 0
KBO1 170255Z 02011KT 04/M03 A3018 RMK A01 T00361032  RH  061%=      5-min Rain = 0
KBO1 170256Z 02012KT 04/M03 A3018 RMK A01 T00361032  RH  061%=      5-min Rain = 0
KBO1 170257Z 02012KT 04/M03 A3018 RMK A01 T00361032  RH  061%=      5-min Rain = 0
KBO1 170258Z 02011KT 04/M03 A3018 RMK A01 T00361032  RH  061%=      5-min Rain = 0
KBO1 170259Z 02012KT 04/M03 A3018 RMK A01 T00361032  RH  061%=      5-min Rain = 0
KBO1 170300Z 02011KT 04/M03 A3018 RMK A01 T00361032  RH  061%=      5-min Rain = 0
KBO1 170301Z 02012KT 04/M03 A3018 RMK A01 T00361031  RH  062%=      5-min Rain = 0
KBO1 170302Z 02011KT 04/M03 A3018 RMK A01 T00351032  RH  062%=      5-min Rain = 0
KBO1 170303Z 02012KT 04/M03 A3018 RMK A01 T00351031  RH  062%=      5-min Rain = 0
KBO1 170304Z 02011KT 04/M03 A3018 RMK A01 T00351031  RH  062%=      5-min Rain = 0
KBO1 170305Z 02011KT 04/M03 A3018 RMK A01 T00351031  RH  062%=      5-min Rain = 0
KBO1 170306Z 02012KT 03/M03 A3018 RMK A01 T00341032  RH  062%=      5-min Rain = 0
KBO1 170307Z 02011KT 03/M03 A3018 RMK A01 T00341031  RH  062%=      5-min Rain = 0
KBO1 170308Z 02010KT 03/M03 A3018 RMK A01 T00341032  RH  062%=      5-min Rain = 0
KBO1 170309Z 02010KT 03/M03 A3019 RMK A01 T00331032  RH  063%=      5-min Rain = 0
KBO1 170310Z 02010KT 03/M03 A3019 RMK A01 T00331031  RH  063%=      5-min Rain = 0
KBO1 170311Z 02009KT 03/M03 A3019 RMK A01 T00331031  RH  063%=      5-min Rain = 0
KBO1 170312Z 02009KT 03/M03 A3019 RMK A01 T00321031  RH  063%=      5-min Rain = 0
KBO1 170313Z 02009KT 03/M03 A3019 RMK A01 T00321031  RH  063%=      5-min Rain = 0
KBO1 170314Z 02009KT 03/M03 A3019 RMK A01 T00321031  RH  064%=      5-min Rain = 0
KBO1 170315Z 03008KT 03/M03 A3019 RMK A01 T00311031  RH  064%=      5-min Rain = 0
KBO1 170316Z 02009KT 03/M03 A3019 RMK A01 T00311031  RH  064%=      5-min Rain = 0
KBO1 170317Z 02009KT 03/M03 A3019 RMK A01 T00311031  RH  064%=      5-min Rain = 0
KBO1 170318Z 02010KT 03/M03 A3019 RMK A01 T00311031  RH  064%=      5-min Rain = 0
KBO1 170319Z 02010KT 03/M03 A3019 RMK A01 T00301031  RH  064%=      5-min Rain = 0
KBO1 170320Z 02009KT 03/M03 A3019 RMK A01 T00301031  RH  064%=      5-min Rain = 0
KBO1 170321Z 02010KT 03/M03 A3018 RMK A01 T00301031  RH  064%=      5-min Rain = 0
KBO1 170322Z 02010KT 03/M03 A3018 RMK A01 T00301031  RH  065%=      5-min Rain = 0
KBO1 170323Z 02010KT 03/M03 A3019 RMK A01 T00291031  RH  065%=      5-min Rain = 0
KBO1 170324Z 01010KT 03/M03 A3019 RMK A01 T00291031  RH  065%=      5-min Rain = 0
KBO1 170325Z 02010KT 03/M03 A3019 RMK A01 T00291031  RH  065%=      5-min Rain = 0
KBO1 170326Z 02009KT 03/M03 A3019 RMK A01 T00291031  RH  065%=      5-min Rain = 0
KBO1 170327Z 02010KT 03/M03 A3019 RMK A01 T00281031  RH  065%=      5-min Rain = 0
KBO1 170328Z 02009KT 03/M03 A3019 RMK A01 T00281030  RH  065%=      5-min Rain = 0
KBO1 170329Z 01008KT 03/M03 A3019 RMK A01 T00281030  RH  065%=      5-min Rain = 0
KBO1 170330Z 01008KT 03/M03 A3019 RMK A01 T00281031  RH  065%=      5-min Rain = 0
KBO1 170331Z 01008KT 03/M03 A3019 RMK A01 T00281030  RH  066%=      5-min Rain = 0
KBO1 170332Z 01008KT 03/M03 A3019 RMK A01 T00271031  RH  066%=      5-min Rain = 0
KBO1 170333Z 01009KT 03/M03 A3019 RMK A01 T00271031  RH  066%=      5-min Rain = 0
KBO1 170334Z 01008KT 03/M03 A3019 RMK A01 T00261031  RH  066%=      5-min Rain = 0
KBO1 170335Z 01009KT 03/M03 A3019 RMK A01 T00261030  RH  066%=      5-min Rain = 0
KBO1 170336Z 01008KT 03/M03 A3019 RMK A01 T00261031  RH  066%=      5-min Rain = 0
KBO1 170337Z 01009KT 03/M03 A3019 RMK A01 T00251031  RH  066%=      5-min Rain = 0
KBO1 170338Z 01008KT 03/M03 A3019 RMK A01 T00261030  RH  067%=      5-min Rain = 0
KBO1 170339Z 01008KT 03/M03 A3019 RMK A01 T00251031  RH  067%=      5-min Rain = 0
KBO1 170340Z 01008KT 03/M03 A3019 RMK A01 T00251030  RH  067%=      5-min Rain = 0
KBO1 170341Z 01008KT 03/M03 A3019 RMK A01 T00251030  RH  067%=      5-min Rain = 0
KBO1 170342Z 01008KT 03/M03 A302 RMK A01 T00251030  RH  067%=      5-min Rain = 0
KBO1 170343Z 01008KT 02/M03 A3019 RMK A01 T00241031  RH  067%=      5-min Rain = 0
KBO1 170344Z 01008KT 02/M03 A3019 RMK A01 T00241031  RH  067%=      5-min Rain = 0
KBO1 170345Z 01008KT 02/M03 A3019 RMK A01 T00241030  RH  067%=      5-min Rain = 0
KBO1 170346Z 01008KT 02/M03 A3019 RMK A01 T00241031  RH  067%=      5-min Rain = 0
KBO1 170347Z 00009KT 02/M03 A3019 RMK A01 T00241031  RH  067%=      5-min Rain = 0
KBO1 170348Z 01008KT 02/M03 A3019 RMK A01 T00241031  RH  067%=      5-min Rain = 0
KBO1 170349Z 01007KT 02/M03 A3019 RMK A01 T00241031  RH  067%=      5-min Rain = 0
KBO1 170350Z 01007KT 02/M03 A302 RMK A01 T00231031  RH  067%=      5-min Rain = 0
KBO1 170351Z 01007KT 02/M03 A302 RMK A01 T00231031  RH  067%=      5-min Rain = 0
KBO1 170352Z 01006KT 02/M03 A302 RMK A01 T00221032  RH  068%=      5-min Rain = 0
KBO1 170353Z 01007KT 02/M03 A302 RMK A01 T00221032  RH  068%=      5-min Rain = 0
KBO1 170354Z 01007KT 02/M03 A302 RMK A01 T00221032  RH  068%=      5-min Rain = 0
KBO1 170355Z 01007KT 02/M03 A302 RMK A01 T00211032  RH  068%=      5-min Rain = 0
KBO1 170356Z 01008KT 02/M03 A302 RMK A01 T00211031  RH  068%=      5-min Rain = 0
KBO1 170357Z 01007KT 02/M03 A302 RMK A01 T00211031  RH  068%=      5-min Rain = 0
KBO1 170358Z 01007KT 02/M03 A302 RMK A01 T00211031  RH  068%=      5-min Rain = 0
KBO1 170359Z 01007KT 02/M03 A302 RMK A01 T00211031  RH  068%=      5-min Rain = 0
KBO1 170400Z 01007KT 02/M03 A302 RMK A01 T00211032  RH  068%=      5-min Rain = 0
KBO1 170401Z 01007KT 02/M03 A302 RMK A01 T00211031  RH  068%=      5-min Rain = 0
KBO1 170402Z 01007KT 02/M03 A302 RMK A01 T00211031  RH  068%=      5-min Rain = 0
KBO1 170403Z 01007KT 02/M03 A302 RMK A01 T00221031  RH  068%=      5-min Rain = 0
KBO1 170404Z 01007KT 02/M03 A302 RMK A01 T00221031  RH  068%=      5-min Rain = 0
KBO1 170405Z 01008KT 02/M03 A302 RMK A01 T00221031  RH  068%=      5-min Rain = 0
KBO1 170406Z 01008KT 02/M03 A302 RMK A01 T00231030  RH  068%=      5-min Rain = 0
KBO1 170407Z 01007KT 02/M03 A302 RMK A01 T00231030  RH  068%=      5-min Rain = 0
KBO1 170408Z 01007KT 02/M03 A302 RMK A01 T00231030  RH  068%=      5-min Rain = 0
KBO1 170409Z 02008KT 02/M03 A302 RMK A01 T00231030  RH  068%=      5-min Rain = 0
KBO1 170410Z 01007KT 02/M03 A302 RMK A01 T00231030  RH  068%=      5-min Rain = 0
KBO1 170411Z 02007KT 02/M03 A302 RMK A01 T00231030  RH  068%=      5-min Rain = 0
KBO1 170412Z 01008KT 02/M03 A302 RMK A01 T00241030  RH  067%=      5-min Rain = 0
KBO1 170413Z 02007KT 02/M03 A302 RMK A01 T00241030  RH  067%=      5-min Rain = 0
KBO1 170414Z 02007KT 02/M03 A302 RMK A01 T00241030  RH  067%=      5-min Rain = 0
KBO1 170415Z 02008KT 03/M03 A302 RMK A01 T00251030  RH  067%=      5-min Rain = 0
KBO1 170416Z 01008KT 03/M03 A302 RMK A01 T00251031  RH  067%=      5-min Rain = 0
KBO1 170417Z 01007KT 03/M03 A302 RMK A01 T00251030  RH  067%=      5-min Rain = 0
KBO1 170418Z 01009KT 03/M03 A302 RMK A01 T00251030  RH  067%=      5-min Rain = 0
KBO1 170419Z 01009KT 03/M03 A302 RMK A01 T00251030  RH  067%=      5-min Rain = 0
KBO1 170420Z 01009KT 03/M03 A302 RMK A01 T00251030  RH  067%=      5-min Rain = 0
KBO1 170421Z 01009KT 03/M03 A302 RMK A01 T00251030  RH  067%=      5-min Rain = 0
KBO1 170422Z 01009KT 03/M03 A302 RMK A01 T00261030  RH  067%=      5-min Rain = 0
KBO1 170423Z 01010KT 03/M03 A302 RMK A01 T00261030  RH  067%=      5-min Rain = 0
KBO1 170424Z 01008KT 03/M03 A302 RMK A01 T00261030  RH  066%=      5-min Rain = 0
KBO1 170425Z 01009KT 03/M03 A302 RMK A01 T00261030  RH  066%=      5-min Rain = 0
KBO1 170426Z 01009KT 03/M03 A302 RMK A01 T00271030  RH  066%=      5-min Rain = 0
KBO1 170427Z 01009KT 03/M03 A302 RMK A01 T00271030  RH  066%=      5-min Rain = 0
KBO1 170428Z 01009KT 03/M03 A302 RMK A01 T00271030  RH  066%=      5-min Rain = 0
KBO1 170429Z 01009KT 03/M03 A302 RMK A01 T00271031  RH  066%=      5-min Rain = 0
KBO1 170430Z 01009KT 03/M03 A302 RMK A01 T00281030  RH  066%=      5-min Rain = 0
KBO1 170431Z 01008KT 03/M03 A302 RMK A01 T00271030  RH  066%=      5-min Rain = 0
KBO1 170432Z 02009KT 03/M03 A302 RMK A01 T00271030  RH  066%=      5-min Rain = 0
KBO1 170433Z 01009KT 03/M03 A3021 RMK A01 T00271031  RH  066%=      5-min Rain = 0
KBO1 170434Z 01009KT 03/M03 A3021 RMK A01 T00271031  RH  066%=      5-min Rain = 0
KBO1 170435Z 02010KT 03/M03 A3021 RMK A01 T00281031  RH  065%=      5-min Rain = 0
KBO1 170436Z 01009KT 03/M03 A3021 RMK A01 T00281031  RH  065%=      5-min Rain = 0
KBO1 170437Z 01010KT 03/M03 A3021 RMK A01 T00281031  RH  065%=      5-min Rain = 0
KBO1 170438Z 01010KT 03/M03 A3021 RMK A01 T00281031  RH  065%=      5-min Rain = 0
KBO1 170439Z 01010KT 03/M03 A3021 RMK A01 T00281031  RH  065%=      5-min Rain = 0
KBO1 170440Z 01009KT 03/M03 A3021 RMK A01 T00291031  RH  065%=      5-min Rain = 0
KBO1 170441Z 01010KT 03/M03 A3021 RMK A01 T00291031  RH  065%=      5-min Rain = 0
KBO1 170442Z 01010KT 03/M03 A3021 RMK A01 T00291031  RH  065%=      5-min Rain = 0
KBO1 170443Z 01011KT 03/M03 A3021 RMK A01 T00291031  RH  065%=      5-min Rain = 0
KBO1 170444Z 01011KT 03/M03 A3021 RMK A01 T00291031  RH  065%=      5-min Rain = 0
KBO1 170445Z 01011KT 03/M03 A302 RMK A01 T00291031  RH  065%=      5-min Rain = 0
KBO1 170446Z 01010KT 03/M03 A302 RMK A01 T00291031  RH  065%=      5-min Rain = 0
KBO1 170447Z 01011KT 03/M03 A302 RMK A01 T00291031  RH  065%=      5-min Rain = 0
KBO1 170448Z 01010KT 03/M03 A302 RMK A01 T00291031  RH  065%=      5-min Rain = 0
KBO1 170449Z 01011KT 03/M03 A302 RMK A01 T00291031  RH  065%=      5-min Rain = 0
KBO1 170450Z 01010KT 03/M03 A302 RMK A01 T00281031  RH  065%=      5-min Rain = 0
KBO1 170451Z 01012KT 03/M03 A302 RMK A01 T00281031  RH  065%=      5-min Rain = 0
KBO1 170452Z 01013KT 03/M03 A302 RMK A01 T00281032  RH  065%=      5-min Rain = 0
KBO1 170453Z 01013KT 03/M03 A302 RMK A01 T00281032  RH  065%=      5-min Rain = 0
KBO1 170454Z 01013KT 03/M03 A302 RMK A01 T00281032  RH  065%=      5-min Rain = 0
KBO1 170455Z 01014KT 03/M03 A302 RMK A01 T00271032  RH  065%=      5-min Rain = 0
KBO1 170456Z 02014KT 03/M03 A302 RMK A01 T00271032  RH  065%=      5-min Rain = 0
KBO1 170457Z 01014KT 03/M03 A302 RMK A01 T00271032  RH  065%=      5-min Rain = 0
KBO1 170458Z 01014KT 03/M03 A302 RMK A01 T00271033  RH  065%=      5-min Rain = 0
KBO1 170459Z 02013KT 03/M03 A302 RMK A01 T00271033  RH  065%=      5-min Rain = 0

Page generated in 0.2058 seconds.